<?xml version="1.0" encoding="UTF-8" standalone="no" ?>
<gpx xmlns="http://www.topografix.com/GPX/1/1" xmlns:xsi="http://www.w3.org/2001/XMLSchema-instance" xsi:schemaLocation="http://www.topografix.com/GPX/1/1 http://www.topografix.com/GPX/1/1/gpx.xsd" version="1.1" creator="VisuGPX - https://www.visugpx.com">
  <metadata>
    <name>PeyreMartine_St_Jean_de_Buèges_12km_D700</name>
    <desc><![CDATA[Belle randonnée variée - Superbes Jonquilles au Printemps (Ne les cueillez pas !!! elles sont si belles sur place...) 
Par Laurent Aldon]]></desc>
  </metadata>
  <wpt lat="43.82212" lon="3.5742">
    <ele>665.668</ele>
    <name><![CDATA[PeyreMartine]]></name>
  </wpt>
  <wpt lat="43.83028" lon="3.58788">
    <ele>714.074</ele>
    <name><![CDATA[Jonquilles]]></name>
  </wpt>
  <trk>
    <name><![CDATA[PeyreMartine]]></name>
    <trkseg>
      <trkpt lat="43.82825" lon="3.61617">
        <ele>150.127</ele>
        <time>2009-03-19T09:24:03Z</time>
      </trkpt>
      <trkpt lat="43.82825" lon="3.61617">
        <ele>150.127</ele>
        <time>2009-03-19T09:24:04Z</time>
      </trkpt>
      <trkpt lat="43.82826" lon="3.61618">
        <ele>153.032</ele>
        <time>2009-03-19T09:24:08Z</time>
      </trkpt>
      <trkpt lat="43.82825" lon="3.61611">
        <ele>156.516</ele>
        <time>2009-03-19T09:24:20Z</time>
      </trkpt>
      <trkpt lat="43.82825" lon="3.6161">
        <ele>158.069</ele>
        <time>2009-03-19T09:24:27Z</time>
      </trkpt>
      <trkpt lat="43.8281" lon="3.61629">
        <ele>158.476</ele>
        <time>2009-03-19T09:24:43Z</time>
      </trkpt>
      <trkpt lat="43.82805" lon="3.61632">
        <ele>159.986</ele>
        <time>2009-03-19T09:24:46Z</time>
      </trkpt>
      <trkpt lat="43.82798" lon="3.61631">
        <ele>160.1</ele>
        <time>2009-03-19T09:24:52Z</time>
      </trkpt>
      <trkpt lat="43.82784" lon="3.61629">
        <ele>160.791</ele>
        <time>2009-03-19T09:25:02Z</time>
      </trkpt>
      <trkpt lat="43.82773" lon="3.61634">
        <ele>159.659</ele>
        <time>2009-03-19T09:25:10Z</time>
      </trkpt>
      <trkpt lat="43.82768" lon="3.61629">
        <ele>162.719</ele>
        <time>2009-03-19T09:25:14Z</time>
      </trkpt>
      <trkpt lat="43.82768" lon="3.61627">
        <ele>162.624</ele>
        <time>2009-03-19T09:25:16Z</time>
      </trkpt>
      <trkpt lat="43.82778" lon="3.61605">
        <ele>166.197</ele>
        <time>2009-03-19T09:25:32Z</time>
      </trkpt>
      <trkpt lat="43.82778" lon="3.61597">
        <ele>165.972</ele>
        <time>2009-03-19T09:25:36Z</time>
      </trkpt>
      <trkpt lat="43.82779" lon="3.61571">
        <ele>165.982</ele>
        <time>2009-03-19T09:25:49Z</time>
      </trkpt>
      <trkpt lat="43.82773" lon="3.61571">
        <ele>167.413</ele>
        <time>2009-03-19T09:25:55Z</time>
      </trkpt>
      <trkpt lat="43.82764" lon="3.61573">
        <ele>168.45</ele>
        <time>2009-03-19T09:26:02Z</time>
      </trkpt>
      <trkpt lat="43.8276" lon="3.61572">
        <ele>169.91</ele>
        <time>2009-03-19T09:26:05Z</time>
      </trkpt>
      <trkpt lat="43.82741" lon="3.61558">
        <ele>172.343</ele>
        <time>2009-03-19T09:26:23Z</time>
      </trkpt>
      <trkpt lat="43.82729" lon="3.61544">
        <ele>172.457</ele>
        <time>2009-03-19T09:26:41Z</time>
      </trkpt>
      <trkpt lat="43.82717" lon="3.61526">
        <ele>172.925</ele>
        <time>2009-03-19T09:27:22Z</time>
      </trkpt>
      <trkpt lat="43.82693" lon="3.61512">
        <ele>174.39</ele>
        <time>2009-03-19T09:27:42Z</time>
      </trkpt>
      <trkpt lat="43.82688" lon="3.61509">
        <ele>174.354</ele>
        <time>2009-03-19T09:27:46Z</time>
      </trkpt>
      <trkpt lat="43.82678" lon="3.61467">
        <ele>176.084</ele>
        <time>2009-03-19T09:28:11Z</time>
      </trkpt>
      <trkpt lat="43.8267" lon="3.61439">
        <ele>178.788</ele>
        <time>2009-03-19T09:28:28Z</time>
      </trkpt>
      <trkpt lat="43.82666" lon="3.61429">
        <ele>179.97</ele>
        <time>2009-03-19T09:28:41Z</time>
      </trkpt>
      <trkpt lat="43.82662" lon="3.6142">
        <ele>180.01</ele>
        <time>2009-03-19T09:28:52Z</time>
      </trkpt>
      <trkpt lat="43.82648" lon="3.61388">
        <ele>182.367</ele>
        <time>2009-03-19T09:29:12Z</time>
      </trkpt>
      <trkpt lat="43.82633" lon="3.61364">
        <ele>184.573</ele>
        <time>2009-03-19T09:29:29Z</time>
      </trkpt>
      <trkpt lat="43.82634" lon="3.61347">
        <ele>186.646</ele>
        <time>2009-03-19T09:29:39Z</time>
      </trkpt>
      <trkpt lat="43.82635" lon="3.61341">
        <ele>188.032</ele>
        <time>2009-03-19T09:29:43Z</time>
      </trkpt>
      <trkpt lat="43.8264" lon="3.61308">
        <ele>187.986</ele>
        <time>2009-03-19T09:30:02Z</time>
      </trkpt>
      <trkpt lat="43.82641" lon="3.61296">
        <ele>188.549</ele>
        <time>2009-03-19T09:30:07Z</time>
      </trkpt>
      <trkpt lat="43.82641" lon="3.61293">
        <ele>188.564</ele>
        <time>2009-03-19T09:30:09Z</time>
      </trkpt>
      <trkpt lat="43.82647" lon="3.61268">
        <ele>190.581</ele>
        <time>2009-03-19T09:30:24Z</time>
      </trkpt>
      <trkpt lat="43.82649" lon="3.61253">
        <ele>193.324</ele>
        <time>2009-03-19T09:30:32Z</time>
      </trkpt>
      <trkpt lat="43.82649" lon="3.61244">
        <ele>195.492</ele>
        <time>2009-03-19T09:30:49Z</time>
      </trkpt>
      <trkpt lat="43.8265" lon="3.61247">
        <ele>195.247</ele>
        <time>2009-03-19T09:31:23Z</time>
      </trkpt>
      <trkpt lat="43.8265" lon="3.61248">
        <ele>194.624</ele>
        <time>2009-03-19T09:31:45Z</time>
      </trkpt>
      <trkpt lat="43.8265" lon="3.61247">
        <ele>194.046</ele>
        <time>2009-03-19T09:32:21Z</time>
      </trkpt>
      <trkpt lat="43.8265" lon="3.61245">
        <ele>194.089</ele>
        <time>2009-03-19T09:32:39Z</time>
      </trkpt>
      <trkpt lat="43.82649" lon="3.61243">
        <ele>193.992</ele>
        <time>2009-03-19T09:33:04Z</time>
      </trkpt>
      <trkpt lat="43.82651" lon="3.61243">
        <ele>193.992</ele>
        <time>2009-03-19T09:33:25Z</time>
      </trkpt>
      <trkpt lat="43.82651" lon="3.6124">
        <ele>194.695</ele>
        <time>2009-03-19T09:33:35Z</time>
      </trkpt>
      <trkpt lat="43.82652" lon="3.61239">
        <ele>195.012</ele>
        <time>2009-03-19T09:33:48Z</time>
      </trkpt>
      <trkpt lat="43.82654" lon="3.61233">
        <ele>195.367</ele>
        <time>2009-03-19T09:33:55Z</time>
      </trkpt>
      <trkpt lat="43.82663" lon="3.61217">
        <ele>197.631</ele>
        <time>2009-03-19T09:34:09Z</time>
      </trkpt>
      <trkpt lat="43.82664" lon="3.61212">
        <ele>199.932</ele>
        <time>2009-03-19T09:34:13Z</time>
      </trkpt>
      <trkpt lat="43.82663" lon="3.61209">
        <ele>199.703</ele>
        <time>2009-03-19T09:34:15Z</time>
      </trkpt>
      <trkpt lat="43.82661" lon="3.61194">
        <ele>200.082</ele>
        <time>2009-03-19T09:34:25Z</time>
      </trkpt>
      <trkpt lat="43.82662" lon="3.61186">
        <ele>200.947</ele>
        <time>2009-03-19T09:34:30Z</time>
      </trkpt>
      <trkpt lat="43.8266" lon="3.61179">
        <ele>201.012</ele>
        <time>2009-03-19T09:34:33Z</time>
      </trkpt>
      <trkpt lat="43.82658" lon="3.61174">
        <ele>201.002</ele>
        <time>2009-03-19T09:34:36Z</time>
      </trkpt>
      <trkpt lat="43.82654" lon="3.6116">
        <ele>202.079</ele>
        <time>2009-03-19T09:34:44Z</time>
      </trkpt>
      <trkpt lat="43.82642" lon="3.6114">
        <ele>202.594</ele>
        <time>2009-03-19T09:34:58Z</time>
      </trkpt>
      <trkpt lat="43.82632" lon="3.61123">
        <ele>205.689</ele>
        <time>2009-03-19T09:35:11Z</time>
      </trkpt>
      <trkpt lat="43.82629" lon="3.611">
        <ele>206.909</ele>
        <time>2009-03-19T09:35:24Z</time>
      </trkpt>
      <trkpt lat="43.82626" lon="3.61081">
        <ele>207.967</ele>
        <time>2009-03-19T09:35:36Z</time>
      </trkpt>
      <trkpt lat="43.82616" lon="3.61061">
        <ele>207</ele>
        <time>2009-03-19T09:35:52Z</time>
      </trkpt>
      <trkpt lat="43.82598" lon="3.61047">
        <ele>207.061</ele>
        <time>2009-03-19T09:36:08Z</time>
      </trkpt>
      <trkpt lat="43.82597" lon="3.61045">
        <ele>207.752</ele>
        <time>2009-03-19T09:36:09Z</time>
      </trkpt>
      <trkpt lat="43.82596" lon="3.61028">
        <ele>208.645</ele>
        <time>2009-03-19T09:36:19Z</time>
      </trkpt>
      <trkpt lat="43.82588" lon="3.6102">
        <ele>210.176</ele>
        <time>2009-03-19T09:36:29Z</time>
      </trkpt>
      <trkpt lat="43.82581" lon="3.61011">
        <ele>210.633</ele>
        <time>2009-03-19T09:36:38Z</time>
      </trkpt>
      <trkpt lat="43.8256" lon="3.6099">
        <ele>209.372</ele>
        <time>2009-03-19T09:36:59Z</time>
      </trkpt>
      <trkpt lat="43.82544" lon="3.6097">
        <ele>207.334</ele>
        <time>2009-03-19T09:37:16Z</time>
      </trkpt>
      <trkpt lat="43.82528" lon="3.60974">
        <ele>208.915</ele>
        <time>2009-03-19T09:37:31Z</time>
      </trkpt>
      <trkpt lat="43.82524" lon="3.60973">
        <ele>209.246</ele>
        <time>2009-03-19T09:37:34Z</time>
      </trkpt>
      <trkpt lat="43.82521" lon="3.60971">
        <ele>210.316</ele>
        <time>2009-03-19T09:37:38Z</time>
      </trkpt>
      <trkpt lat="43.8252" lon="3.6097">
        <ele>210.762</ele>
        <time>2009-03-19T09:37:39Z</time>
      </trkpt>
      <trkpt lat="43.82511" lon="3.60967">
        <ele>212.658</ele>
        <time>2009-03-19T09:37:49Z</time>
      </trkpt>
      <trkpt lat="43.82501" lon="3.60962">
        <ele>215.1</ele>
        <time>2009-03-19T09:38:01Z</time>
      </trkpt>
      <trkpt lat="43.82491" lon="3.60954">
        <ele>218.486</ele>
        <time>2009-03-19T09:38:13Z</time>
      </trkpt>
      <trkpt lat="43.82484" lon="3.60943">
        <ele>220.764</ele>
        <time>2009-03-19T09:38:27Z</time>
      </trkpt>
      <trkpt lat="43.82474" lon="3.60937">
        <ele>222.162</ele>
        <time>2009-03-19T09:38:37Z</time>
      </trkpt>
      <trkpt lat="43.82471" lon="3.60934">
        <ele>223.975</ele>
        <time>2009-03-19T09:38:42Z</time>
      </trkpt>
      <trkpt lat="43.82463" lon="3.60922">
        <ele>226.954</ele>
        <time>2009-03-19T09:38:53Z</time>
      </trkpt>
      <trkpt lat="43.82456" lon="3.60903">
        <ele>227.421</ele>
        <time>2009-03-19T09:39:06Z</time>
      </trkpt>
      <trkpt lat="43.82451" lon="3.60887">
        <ele>229.494</ele>
        <time>2009-03-19T09:39:18Z</time>
      </trkpt>
      <trkpt lat="43.8245" lon="3.60871">
        <ele>229.992</ele>
        <time>2009-03-19T09:39:32Z</time>
      </trkpt>
      <trkpt lat="43.8245" lon="3.6087">
        <ele>229.341</ele>
        <time>2009-03-19T09:39:33Z</time>
      </trkpt>
      <trkpt lat="43.82452" lon="3.60854">
        <ele>230.995</ele>
        <time>2009-03-19T09:39:44Z</time>
      </trkpt>
      <trkpt lat="43.82453" lon="3.60839">
        <ele>232.783</ele>
        <time>2009-03-19T09:39:56Z</time>
      </trkpt>
      <trkpt lat="43.82451" lon="3.60836">
        <ele>233.06</ele>
        <time>2009-03-19T09:39:59Z</time>
      </trkpt>
      <trkpt lat="43.82446" lon="3.6082">
        <ele>233.996</ele>
        <time>2009-03-19T09:40:13Z</time>
      </trkpt>
      <trkpt lat="43.82445" lon="3.60818">
        <ele>237.331</ele>
        <time>2009-03-19T09:40:15Z</time>
      </trkpt>
      <trkpt lat="43.82445" lon="3.60815">
        <ele>237.073</ele>
        <time>2009-03-19T09:40:19Z</time>
      </trkpt>
      <trkpt lat="43.8244" lon="3.60806">
        <ele>239.83</ele>
        <time>2009-03-19T09:40:30Z</time>
      </trkpt>
      <trkpt lat="43.82431" lon="3.60787">
        <ele>241.665</ele>
        <time>2009-03-19T09:40:44Z</time>
      </trkpt>
      <trkpt lat="43.82428" lon="3.60783">
        <ele>243.736</ele>
        <time>2009-03-19T09:40:48Z</time>
      </trkpt>
      <trkpt lat="43.8242" lon="3.60768">
        <ele>246.945</ele>
        <time>2009-03-19T09:41:00Z</time>
      </trkpt>
      <trkpt lat="43.82413" lon="3.60751">
        <ele>248.538</ele>
        <time>2009-03-19T09:41:14Z</time>
      </trkpt>
      <trkpt lat="43.82407" lon="3.60738">
        <ele>251.822</ele>
        <time>2009-03-19T09:41:26Z</time>
      </trkpt>
      <trkpt lat="43.82401" lon="3.60727">
        <ele>255.089</ele>
        <time>2009-03-19T09:41:37Z</time>
      </trkpt>
      <trkpt lat="43.82396" lon="3.6071">
        <ele>257.112</ele>
        <time>2009-03-19T09:41:50Z</time>
      </trkpt>
      <trkpt lat="43.82389" lon="3.60694">
        <ele>259.444</ele>
        <time>2009-03-19T09:42:04Z</time>
      </trkpt>
      <trkpt lat="43.82384" lon="3.60685">
        <ele>259.799</ele>
        <time>2009-03-19T09:42:16Z</time>
      </trkpt>
      <trkpt lat="43.82382" lon="3.60673">
        <ele>261.773</ele>
        <time>2009-03-19T09:42:30Z</time>
      </trkpt>
      <trkpt lat="43.82377" lon="3.60658">
        <ele>263.801</ele>
        <time>2009-03-19T09:42:44Z</time>
      </trkpt>
      <trkpt lat="43.82372" lon="3.60641">
        <ele>263.485</ele>
        <time>2009-03-19T09:42:56Z</time>
      </trkpt>
      <trkpt lat="43.82368" lon="3.60624">
        <ele>265.804</ele>
        <time>2009-03-19T09:43:09Z</time>
      </trkpt>
      <trkpt lat="43.82365" lon="3.6062">
        <ele>265.858</ele>
        <time>2009-03-19T09:43:32Z</time>
      </trkpt>
      <trkpt lat="43.82365" lon="3.60619">
        <ele>266.688</ele>
        <time>2009-03-19T09:43:46Z</time>
      </trkpt>
      <trkpt lat="43.82363" lon="3.60616">
        <ele>265.305</ele>
        <time>2009-03-19T09:43:49Z</time>
      </trkpt>
      <trkpt lat="43.82362" lon="3.60612">
        <ele>265.72</ele>
        <time>2009-03-19T09:43:52Z</time>
      </trkpt>
      <trkpt lat="43.82359" lon="3.60597">
        <ele>266.543</ele>
        <time>2009-03-19T09:44:03Z</time>
      </trkpt>
      <trkpt lat="43.82357" lon="3.60594">
        <ele>266.618</ele>
        <time>2009-03-19T09:44:05Z</time>
      </trkpt>
      <trkpt lat="43.82355" lon="3.60591">
        <ele>266.577</ele>
        <time>2009-03-19T09:44:07Z</time>
      </trkpt>
      <trkpt lat="43.82353" lon="3.60581">
        <ele>266.853</ele>
        <time>2009-03-19T09:44:13Z</time>
      </trkpt>
      <trkpt lat="43.82352" lon="3.60578">
        <ele>266.355</ele>
        <time>2009-03-19T09:44:15Z</time>
      </trkpt>
      <trkpt lat="43.82348" lon="3.6057">
        <ele>266.967</ele>
        <time>2009-03-19T09:44:20Z</time>
      </trkpt>
      <trkpt lat="43.82341" lon="3.60555">
        <ele>268.025</ele>
        <time>2009-03-19T09:44:33Z</time>
      </trkpt>
      <trkpt lat="43.82334" lon="3.60537">
        <ele>268.908</ele>
        <time>2009-03-19T09:44:43Z</time>
      </trkpt>
      <trkpt lat="43.8233" lon="3.60525">
        <ele>269.471</ele>
        <time>2009-03-19T09:44:50Z</time>
      </trkpt>
      <trkpt lat="43.82323" lon="3.60504">
        <ele>269.617</ele>
        <time>2009-03-19T09:45:03Z</time>
      </trkpt>
      <trkpt lat="43.8232" lon="3.60499">
        <ele>269.831</ele>
        <time>2009-03-19T09:45:06Z</time>
      </trkpt>
      <trkpt lat="43.82314" lon="3.60477">
        <ele>270.791</ele>
        <time>2009-03-19T09:45:20Z</time>
      </trkpt>
      <trkpt lat="43.82308" lon="3.60456">
        <ele>271.453</ele>
        <time>2009-03-19T09:45:33Z</time>
      </trkpt>
      <trkpt lat="43.82306" lon="3.60449">
        <ele>271.586</ele>
        <time>2009-03-19T09:45:37Z</time>
      </trkpt>
      <trkpt lat="43.82305" lon="3.60438">
        <ele>272.267</ele>
        <time>2009-03-19T09:45:43Z</time>
      </trkpt>
      <trkpt lat="43.82304" lon="3.60416">
        <ele>273.109</ele>
        <time>2009-03-19T09:45:57Z</time>
      </trkpt>
      <trkpt lat="43.82306" lon="3.60412">
        <ele>272.886</ele>
        <time>2009-03-19T09:46:01Z</time>
      </trkpt>
      <trkpt lat="43.82306" lon="3.60404">
        <ele>272.625</ele>
        <time>2009-03-19T09:46:04Z</time>
      </trkpt>
      <trkpt lat="43.82311" lon="3.60386">
        <ele>273.449</ele>
        <time>2009-03-19T09:46:15Z</time>
      </trkpt>
      <trkpt lat="43.82323" lon="3.60366">
        <ele>273.54</ele>
        <time>2009-03-19T09:46:32Z</time>
      </trkpt>
      <trkpt lat="43.82334" lon="3.60345">
        <ele>272.673</ele>
        <time>2009-03-19T09:46:48Z</time>
      </trkpt>
      <trkpt lat="43.82334" lon="3.60344">
        <ele>271.88</ele>
        <time>2009-03-19T09:46:49Z</time>
      </trkpt>
      <trkpt lat="43.82344" lon="3.60327">
        <ele>273.651</ele>
        <time>2009-03-19T09:47:03Z</time>
      </trkpt>
      <trkpt lat="43.82346" lon="3.60318">
        <ele>273.215</ele>
        <time>2009-03-19T09:47:09Z</time>
      </trkpt>
      <trkpt lat="43.82353" lon="3.60301">
        <ele>273.601</ele>
        <time>2009-03-19T09:47:22Z</time>
      </trkpt>
      <trkpt lat="43.82355" lon="3.60299">
        <ele>274.071</ele>
        <time>2009-03-19T09:47:24Z</time>
      </trkpt>
      <trkpt lat="43.82364" lon="3.60284">
        <ele>274.237</ele>
        <time>2009-03-19T09:47:38Z</time>
      </trkpt>
      <trkpt lat="43.82364" lon="3.60282">
        <ele>275.183</ele>
        <time>2009-03-19T09:47:40Z</time>
      </trkpt>
      <trkpt lat="43.82368" lon="3.60264">
        <ele>278.225</ele>
        <time>2009-03-19T09:47:55Z</time>
      </trkpt>
      <trkpt lat="43.82367" lon="3.60258">
        <ele>277.497</ele>
        <time>2009-03-19T09:47:59Z</time>
      </trkpt>
      <trkpt lat="43.82371" lon="3.60227">
        <ele>278.308</ele>
        <time>2009-03-19T09:48:18Z</time>
      </trkpt>
      <trkpt lat="43.82374" lon="3.60204">
        <ele>278.816</ele>
        <time>2009-03-19T09:48:32Z</time>
      </trkpt>
      <trkpt lat="43.82376" lon="3.60184">
        <ele>280.064</ele>
        <time>2009-03-19T09:48:44Z</time>
      </trkpt>
      <trkpt lat="43.82376" lon="3.60182">
        <ele>279.861</ele>
        <time>2009-03-19T09:48:45Z</time>
      </trkpt>
      <trkpt lat="43.82379" lon="3.60176">
        <ele>280.568</ele>
        <time>2009-03-19T09:48:50Z</time>
      </trkpt>
      <trkpt lat="43.8238" lon="3.60151">
        <ele>282.583</ele>
        <time>2009-03-19T09:49:05Z</time>
      </trkpt>
      <trkpt lat="43.82382" lon="3.60139">
        <ele>282.796</ele>
        <time>2009-03-19T09:49:13Z</time>
      </trkpt>
      <trkpt lat="43.82381" lon="3.60116">
        <ele>283.319</ele>
        <time>2009-03-19T09:49:27Z</time>
      </trkpt>
      <trkpt lat="43.82379" lon="3.60115">
        <ele>283.451</ele>
        <time>2009-03-19T09:49:45Z</time>
      </trkpt>
      <trkpt lat="43.8238" lon="3.60108">
        <ele>283.95</ele>
        <time>2009-03-19T09:50:14Z</time>
      </trkpt>
      <trkpt lat="43.8238" lon="3.60106">
        <ele>283.595</ele>
        <time>2009-03-19T09:50:15Z</time>
      </trkpt>
      <trkpt lat="43.82381" lon="3.60083">
        <ele>283.173</ele>
        <time>2009-03-19T09:50:29Z</time>
      </trkpt>
      <trkpt lat="43.82379" lon="3.60056">
        <ele>283.394</ele>
        <time>2009-03-19T09:50:48Z</time>
      </trkpt>
      <trkpt lat="43.82373" lon="3.60039">
        <ele>282.226</ele>
        <time>2009-03-19T09:51:03Z</time>
      </trkpt>
      <trkpt lat="43.82371" lon="3.60036">
        <ele>280.945</ele>
        <time>2009-03-19T09:51:18Z</time>
      </trkpt>
      <trkpt lat="43.82361" lon="3.60025">
        <ele>280.018</ele>
        <time>2009-03-19T09:51:28Z</time>
      </trkpt>
      <trkpt lat="43.82357" lon="3.60018">
        <ele>280.27</ele>
        <time>2009-03-19T09:51:34Z</time>
      </trkpt>
      <trkpt lat="43.82349" lon="3.6001">
        <ele>281.033</ele>
        <time>2009-03-19T09:51:42Z</time>
      </trkpt>
      <trkpt lat="43.82344" lon="3.60005">
        <ele>281.429</ele>
        <time>2009-03-19T09:51:47Z</time>
      </trkpt>
      <trkpt lat="43.82338" lon="3.59993">
        <ele>283.845</ele>
        <time>2009-03-19T09:51:57Z</time>
      </trkpt>
      <trkpt lat="43.82328" lon="3.59979">
        <ele>283.765</ele>
        <time>2009-03-19T09:52:10Z</time>
      </trkpt>
      <trkpt lat="43.82322" lon="3.59978">
        <ele>283.073</ele>
        <time>2009-03-19T09:52:18Z</time>
      </trkpt>
      <trkpt lat="43.8232" lon="3.5998">
        <ele>282.387</ele>
        <time>2009-03-19T09:52:22Z</time>
      </trkpt>
      <trkpt lat="43.82315" lon="3.59986">
        <ele>281.516</ele>
        <time>2009-03-19T09:52:26Z</time>
      </trkpt>
      <trkpt lat="43.82308" lon="3.59991">
        <ele>280.508</ele>
        <time>2009-03-19T09:52:36Z</time>
      </trkpt>
      <trkpt lat="43.82307" lon="3.59991">
        <ele>280.314</ele>
        <time>2009-03-19T09:52:37Z</time>
      </trkpt>
      <trkpt lat="43.82303" lon="3.59989">
        <ele>280.671</ele>
        <time>2009-03-19T09:52:47Z</time>
      </trkpt>
      <trkpt lat="43.82293" lon="3.5998">
        <ele>279.11</ele>
        <time>2009-03-19T09:52:56Z</time>
      </trkpt>
      <trkpt lat="43.82285" lon="3.5998">
        <ele>277.724</ele>
        <time>2009-03-19T09:53:02Z</time>
      </trkpt>
      <trkpt lat="43.82283" lon="3.59982">
        <ele>276.549</ele>
        <time>2009-03-19T09:53:04Z</time>
      </trkpt>
      <trkpt lat="43.82276" lon="3.59984">
        <ele>275.753</ele>
        <time>2009-03-19T09:53:11Z</time>
      </trkpt>
      <trkpt lat="43.82273" lon="3.59997">
        <ele>275.034</ele>
        <time>2009-03-19T09:53:20Z</time>
      </trkpt>
      <trkpt lat="43.82272" lon="3.59993">
        <ele>273.869</ele>
        <time>2009-03-19T09:53:24Z</time>
      </trkpt>
      <trkpt lat="43.82268" lon="3.59979">
        <ele>272.858</ele>
        <time>2009-03-19T09:53:33Z</time>
      </trkpt>
      <trkpt lat="43.82267" lon="3.59978">
        <ele>272.864</ele>
        <time>2009-03-19T09:53:34Z</time>
      </trkpt>
      <trkpt lat="43.82265" lon="3.59975">
        <ele>272.664</ele>
        <time>2009-03-19T09:53:36Z</time>
      </trkpt>
      <trkpt lat="43.82262" lon="3.59974">
        <ele>272.445</ele>
        <time>2009-03-19T09:53:38Z</time>
      </trkpt>
      <trkpt lat="43.82254" lon="3.59976">
        <ele>270.449</ele>
        <time>2009-03-19T09:53:44Z</time>
      </trkpt>
      <trkpt lat="43.82249" lon="3.59978">
        <ele>270.629</ele>
        <time>2009-03-19T09:53:48Z</time>
      </trkpt>
      <trkpt lat="43.8225" lon="3.59997">
        <ele>269.992</ele>
        <time>2009-03-19T09:54:00Z</time>
      </trkpt>
      <trkpt lat="43.8225" lon="3.60025">
        <ele>268.773</ele>
        <time>2009-03-19T09:54:16Z</time>
      </trkpt>
      <trkpt lat="43.82248" lon="3.60031">
        <ele>268.409</ele>
        <time>2009-03-19T09:54:20Z</time>
      </trkpt>
      <trkpt lat="43.82244" lon="3.60044">
        <ele>267.502</ele>
        <time>2009-03-19T09:54:28Z</time>
      </trkpt>
      <trkpt lat="43.82245" lon="3.60053">
        <ele>267.3</ele>
        <time>2009-03-19T09:54:33Z</time>
      </trkpt>
      <trkpt lat="43.82248" lon="3.60064">
        <ele>266.454</ele>
        <time>2009-03-19T09:54:41Z</time>
      </trkpt>
      <trkpt lat="43.82244" lon="3.60071">
        <ele>265.665</ele>
        <time>2009-03-19T09:54:48Z</time>
      </trkpt>
      <trkpt lat="43.82244" lon="3.60076">
        <ele>264.521</ele>
        <time>2009-03-19T09:54:51Z</time>
      </trkpt>
      <trkpt lat="43.82243" lon="3.60083">
        <ele>262.825</ele>
        <time>2009-03-19T09:54:55Z</time>
      </trkpt>
      <trkpt lat="43.82238" lon="3.60092">
        <ele>260.308</ele>
        <time>2009-03-19T09:55:02Z</time>
      </trkpt>
      <trkpt lat="43.82227" lon="3.60101">
        <ele>258.61</ele>
        <time>2009-03-19T09:55:11Z</time>
      </trkpt>
      <trkpt lat="43.82211" lon="3.60105">
        <ele>255.734</ele>
        <time>2009-03-19T09:55:22Z</time>
      </trkpt>
      <trkpt lat="43.82205" lon="3.60098">
        <ele>255.004</ele>
        <time>2009-03-19T09:55:32Z</time>
      </trkpt>
      <trkpt lat="43.82204" lon="3.60095">
        <ele>255.508</ele>
        <time>2009-03-19T09:55:57Z</time>
      </trkpt>
      <trkpt lat="43.82204" lon="3.60095">
        <ele>255.367</ele>
        <time>2009-03-19T09:56:16Z</time>
      </trkpt>
      <trkpt lat="43.822" lon="3.60093">
        <ele>253.693</ele>
        <time>2009-03-19T09:56:19Z</time>
      </trkpt>
      <trkpt lat="43.82198" lon="3.60094">
        <ele>253.478</ele>
        <time>2009-03-19T09:56:21Z</time>
      </trkpt>
      <trkpt lat="43.82178" lon="3.60092">
        <ele>249.869</ele>
        <time>2009-03-19T09:56:37Z</time>
      </trkpt>
      <trkpt lat="43.8216" lon="3.60096">
        <ele>247.815</ele>
        <time>2009-03-19T09:56:57Z</time>
      </trkpt>
      <trkpt lat="43.8216" lon="3.60096">
        <ele>247.537</ele>
        <time>2009-03-19T09:56:59Z</time>
      </trkpt>
      <trkpt lat="43.82171" lon="3.60093">
        <ele>249.526</ele>
        <time>2009-03-19T09:57:10Z</time>
      </trkpt>
      <trkpt lat="43.82181" lon="3.60093">
        <ele>250.872</ele>
        <time>2009-03-19T09:57:18Z</time>
      </trkpt>
      <trkpt lat="43.8219" lon="3.6009">
        <ele>251.902</ele>
        <time>2009-03-19T09:57:34Z</time>
      </trkpt>
      <trkpt lat="43.82198" lon="3.60092">
        <ele>255.285</ele>
        <time>2009-03-19T09:57:41Z</time>
      </trkpt>
      <trkpt lat="43.82207" lon="3.60084">
        <ele>256.716</ele>
        <time>2009-03-19T09:57:54Z</time>
      </trkpt>
      <trkpt lat="43.82208" lon="3.60062">
        <ele>256.68</ele>
        <time>2009-03-19T09:58:06Z</time>
      </trkpt>
      <trkpt lat="43.82206" lon="3.60044">
        <ele>260.346</ele>
        <time>2009-03-19T09:58:16Z</time>
      </trkpt>
      <trkpt lat="43.82206" lon="3.60041">
        <ele>260.344</ele>
        <time>2009-03-19T09:58:18Z</time>
      </trkpt>
      <trkpt lat="43.82206" lon="3.6004">
        <ele>257.221</ele>
        <time>2009-03-19T09:58:19Z</time>
      </trkpt>
      <trkpt lat="43.82206" lon="3.60038">
        <ele>257.16</ele>
        <time>2009-03-19T09:58:20Z</time>
      </trkpt>
      <trkpt lat="43.82204" lon="3.60015">
        <ele>256.842</ele>
        <time>2009-03-19T09:58:33Z</time>
      </trkpt>
      <trkpt lat="43.82204" lon="3.59998">
        <ele>256.318</ele>
        <time>2009-03-19T09:58:44Z</time>
      </trkpt>
      <trkpt lat="43.82203" lon="3.59987">
        <ele>255.916</ele>
        <time>2009-03-19T09:58:52Z</time>
      </trkpt>
      <trkpt lat="43.8219" lon="3.5996">
        <ele>255.728</ele>
        <time>2009-03-19T09:59:10Z</time>
      </trkpt>
      <trkpt lat="43.8218" lon="3.59945">
        <ele>255.555</ele>
        <time>2009-03-19T09:59:22Z</time>
      </trkpt>
      <trkpt lat="43.82169" lon="3.5993">
        <ele>255.663</ele>
        <time>2009-03-19T09:59:29Z</time>
      </trkpt>
      <trkpt lat="43.82154" lon="3.59902">
        <ele>258.36</ele>
        <time>2009-03-19T09:59:50Z</time>
      </trkpt>
      <trkpt lat="43.82142" lon="3.59879">
        <ele>259.178</ele>
        <time>2009-03-19T10:00:02Z</time>
      </trkpt>
      <trkpt lat="43.8214" lon="3.59873">
        <ele>260.121</ele>
        <time>2009-03-19T10:00:06Z</time>
      </trkpt>
      <trkpt lat="43.82143" lon="3.59861">
        <ele>262.319</ele>
        <time>2009-03-19T10:00:14Z</time>
      </trkpt>
      <trkpt lat="43.82143" lon="3.5985">
        <ele>265.617</ele>
        <time>2009-03-19T10:00:26Z</time>
      </trkpt>
      <trkpt lat="43.82135" lon="3.59834">
        <ele>268.641</ele>
        <time>2009-03-19T10:00:41Z</time>
      </trkpt>
      <trkpt lat="43.82137" lon="3.59816">
        <ele>270.402</ele>
        <time>2009-03-19T10:00:57Z</time>
      </trkpt>
      <trkpt lat="43.82134" lon="3.59806">
        <ele>273.55</ele>
        <time>2009-03-19T10:01:05Z</time>
      </trkpt>
      <trkpt lat="43.82128" lon="3.59791">
        <ele>276.693</ele>
        <time>2009-03-19T10:01:16Z</time>
      </trkpt>
      <trkpt lat="43.82128" lon="3.5979">
        <ele>276.614</ele>
        <time>2009-03-19T10:01:17Z</time>
      </trkpt>
      <trkpt lat="43.82127" lon="3.59785">
        <ele>278.34</ele>
        <time>2009-03-19T10:01:21Z</time>
      </trkpt>
      <trkpt lat="43.8212" lon="3.59764">
        <ele>279.084</ele>
        <time>2009-03-19T10:01:36Z</time>
      </trkpt>
      <trkpt lat="43.8212" lon="3.59747">
        <ele>279.818</ele>
        <time>2009-03-19T10:01:47Z</time>
      </trkpt>
      <trkpt lat="43.82115" lon="3.59724">
        <ele>281.868</ele>
        <time>2009-03-19T10:02:03Z</time>
      </trkpt>
      <trkpt lat="43.82108" lon="3.59705">
        <ele>283.061</ele>
        <time>2009-03-19T10:02:15Z</time>
      </trkpt>
      <trkpt lat="43.82107" lon="3.59699">
        <ele>283.288</ele>
        <time>2009-03-19T10:02:20Z</time>
      </trkpt>
      <trkpt lat="43.82097" lon="3.59685">
        <ele>283.745</ele>
        <time>2009-03-19T10:02:31Z</time>
      </trkpt>
      <trkpt lat="43.82083" lon="3.59665">
        <ele>284.349</ele>
        <time>2009-03-19T10:02:43Z</time>
      </trkpt>
      <trkpt lat="43.82082" lon="3.59663">
        <ele>284.557</ele>
        <time>2009-03-19T10:02:45Z</time>
      </trkpt>
      <trkpt lat="43.82075" lon="3.59659">
        <ele>284.266</ele>
        <time>2009-03-19T10:02:51Z</time>
      </trkpt>
      <trkpt lat="43.82069" lon="3.59638">
        <ele>285.087</ele>
        <time>2009-03-19T10:03:04Z</time>
      </trkpt>
      <trkpt lat="43.82064" lon="3.59631">
        <ele>285.111</ele>
        <time>2009-03-19T10:03:10Z</time>
      </trkpt>
      <trkpt lat="43.82059" lon="3.59625">
        <ele>285.476</ele>
        <time>2009-03-19T10:03:14Z</time>
      </trkpt>
      <trkpt lat="43.82057" lon="3.59623">
        <ele>285.325</ele>
        <time>2009-03-19T10:03:16Z</time>
      </trkpt>
      <trkpt lat="43.82052" lon="3.59615">
        <ele>285.23</ele>
        <time>2009-03-19T10:03:22Z</time>
      </trkpt>
      <trkpt lat="43.82037" lon="3.59594">
        <ele>287.846</ele>
        <time>2009-03-19T10:03:40Z</time>
      </trkpt>
      <trkpt lat="43.82037" lon="3.5959">
        <ele>289.36</ele>
        <time>2009-03-19T10:03:43Z</time>
      </trkpt>
      <trkpt lat="43.82033" lon="3.59568">
        <ele>291.681</ele>
        <time>2009-03-19T10:03:57Z</time>
      </trkpt>
      <trkpt lat="43.82032" lon="3.59567">
        <ele>291.679</ele>
        <time>2009-03-19T10:03:58Z</time>
      </trkpt>
      <trkpt lat="43.82029" lon="3.59564">
        <ele>293.195</ele>
        <time>2009-03-19T10:04:01Z</time>
      </trkpt>
      <trkpt lat="43.82021" lon="3.59557">
        <ele>293.78</ele>
        <time>2009-03-19T10:04:09Z</time>
      </trkpt>
      <trkpt lat="43.82018" lon="3.59554">
        <ele>293.722</ele>
        <time>2009-03-19T10:04:12Z</time>
      </trkpt>
      <trkpt lat="43.82008" lon="3.59547">
        <ele>294.487</ele>
        <time>2009-03-19T10:04:21Z</time>
      </trkpt>
      <trkpt lat="43.82001" lon="3.59547">
        <ele>294</ele>
        <time>2009-03-19T10:04:26Z</time>
      </trkpt>
      <trkpt lat="43.81991" lon="3.59543">
        <ele>294.623</ele>
        <time>2009-03-19T10:04:34Z</time>
      </trkpt>
      <trkpt lat="43.8199" lon="3.59541">
        <ele>294.448</ele>
        <time>2009-03-19T10:04:36Z</time>
      </trkpt>
      <trkpt lat="43.81988" lon="3.5954">
        <ele>294.309</ele>
        <time>2009-03-19T10:04:38Z</time>
      </trkpt>
      <trkpt lat="43.81982" lon="3.59535">
        <ele>294.312</ele>
        <time>2009-03-19T10:04:44Z</time>
      </trkpt>
      <trkpt lat="43.81978" lon="3.59533">
        <ele>293.6</ele>
        <time>2009-03-19T10:04:48Z</time>
      </trkpt>
      <trkpt lat="43.81972" lon="3.59529">
        <ele>293.858</ele>
        <time>2009-03-19T10:04:54Z</time>
      </trkpt>
      <trkpt lat="43.8197" lon="3.59525">
        <ele>293.794</ele>
        <time>2009-03-19T10:04:57Z</time>
      </trkpt>
      <trkpt lat="43.81969" lon="3.59522">
        <ele>293.252</ele>
        <time>2009-03-19T10:04:59Z</time>
      </trkpt>
      <trkpt lat="43.81965" lon="3.59506">
        <ele>292.973</ele>
        <time>2009-03-19T10:05:12Z</time>
      </trkpt>
      <trkpt lat="43.81963" lon="3.59499">
        <ele>292.667</ele>
        <time>2009-03-19T10:05:31Z</time>
      </trkpt>
      <trkpt lat="43.81955" lon="3.59487">
        <ele>292.563</ele>
        <time>2009-03-19T10:05:39Z</time>
      </trkpt>
      <trkpt lat="43.81948" lon="3.5948">
        <ele>292.403</ele>
        <time>2009-03-19T10:05:46Z</time>
      </trkpt>
      <trkpt lat="43.81943" lon="3.59474">
        <ele>290.994</ele>
        <time>2009-03-19T10:05:51Z</time>
      </trkpt>
      <trkpt lat="43.81941" lon="3.59471">
        <ele>291.171</ele>
        <time>2009-03-19T10:05:54Z</time>
      </trkpt>
      <trkpt lat="43.81935" lon="3.59465">
        <ele>289.796</ele>
        <time>2009-03-19T10:06:01Z</time>
      </trkpt>
      <trkpt lat="43.81933" lon="3.59464">
        <ele>289.725</ele>
        <time>2009-03-19T10:06:03Z</time>
      </trkpt>
      <trkpt lat="43.8193" lon="3.59461">
        <ele>289.147</ele>
        <time>2009-03-19T10:06:07Z</time>
      </trkpt>
      <trkpt lat="43.81909" lon="3.5945">
        <ele>288.44</ele>
        <time>2009-03-19T10:06:24Z</time>
      </trkpt>
      <trkpt lat="43.81906" lon="3.59449">
        <ele>287.67</ele>
        <time>2009-03-19T10:06:26Z</time>
      </trkpt>
      <trkpt lat="43.81894" lon="3.59444">
        <ele>286.857</ele>
        <time>2009-03-19T10:06:36Z</time>
      </trkpt>
      <trkpt lat="43.81881" lon="3.59434">
        <ele>286.591</ele>
        <time>2009-03-19T10:06:49Z</time>
      </trkpt>
      <trkpt lat="43.81879" lon="3.5943">
        <ele>285.751</ele>
        <time>2009-03-19T10:06:52Z</time>
      </trkpt>
      <trkpt lat="43.81878" lon="3.59427">
        <ele>286.04</ele>
        <time>2009-03-19T10:06:54Z</time>
      </trkpt>
      <trkpt lat="43.81868" lon="3.59402">
        <ele>285.614</ele>
        <time>2009-03-19T10:07:10Z</time>
      </trkpt>
      <trkpt lat="43.81863" lon="3.5939">
        <ele>285.076</ele>
        <time>2009-03-19T10:07:18Z</time>
      </trkpt>
      <trkpt lat="43.81856" lon="3.59371">
        <ele>287.127</ele>
        <time>2009-03-19T10:07:32Z</time>
      </trkpt>
      <trkpt lat="43.81856" lon="3.5937">
        <ele>287.267</ele>
        <time>2009-03-19T10:07:33Z</time>
      </trkpt>
      <trkpt lat="43.81853" lon="3.59356">
        <ele>288.846</ele>
        <time>2009-03-19T10:07:44Z</time>
      </trkpt>
      <trkpt lat="43.81854" lon="3.59348">
        <ele>290.406</ele>
        <time>2009-03-19T10:07:59Z</time>
      </trkpt>
      <trkpt lat="43.81856" lon="3.59338">
        <ele>291.235</ele>
        <time>2009-03-19T10:08:06Z</time>
      </trkpt>
      <trkpt lat="43.81856" lon="3.59329">
        <ele>292.779</ele>
        <time>2009-03-19T10:08:12Z</time>
      </trkpt>
      <trkpt lat="43.81853" lon="3.5931">
        <ele>295.022</ele>
        <time>2009-03-19T10:08:23Z</time>
      </trkpt>
      <trkpt lat="43.81849" lon="3.59297">
        <ele>296.359</ele>
        <time>2009-03-19T10:08:33Z</time>
      </trkpt>
      <trkpt lat="43.81847" lon="3.59295">
        <ele>298.119</ele>
        <time>2009-03-19T10:08:35Z</time>
      </trkpt>
      <trkpt lat="43.81843" lon="3.59291">
        <ele>299.229</ele>
        <time>2009-03-19T10:08:40Z</time>
      </trkpt>
      <trkpt lat="43.81841" lon="3.59289">
        <ele>300.535</ele>
        <time>2009-03-19T10:08:43Z</time>
      </trkpt>
      <trkpt lat="43.81835" lon="3.5929">
        <ele>301.121</ele>
        <time>2009-03-19T10:08:50Z</time>
      </trkpt>
      <trkpt lat="43.81828" lon="3.59286">
        <ele>302.667</ele>
        <time>2009-03-19T10:08:59Z</time>
      </trkpt>
      <trkpt lat="43.81825" lon="3.59283">
        <ele>304.418</ele>
        <time>2009-03-19T10:09:05Z</time>
      </trkpt>
      <trkpt lat="43.8182" lon="3.5927">
        <ele>306.426</ele>
        <time>2009-03-19T10:09:24Z</time>
      </trkpt>
      <trkpt lat="43.81817" lon="3.59267">
        <ele>308.173</ele>
        <time>2009-03-19T10:09:29Z</time>
      </trkpt>
      <trkpt lat="43.81814" lon="3.59263">
        <ele>309.857</ele>
        <time>2009-03-19T10:09:35Z</time>
      </trkpt>
      <trkpt lat="43.81808" lon="3.59255">
        <ele>313.022</ele>
        <time>2009-03-19T10:09:45Z</time>
      </trkpt>
      <trkpt lat="43.81808" lon="3.59256">
        <ele>313.269</ele>
        <time>2009-03-19T10:09:46Z</time>
      </trkpt>
      <trkpt lat="43.81806" lon="3.59257">
        <ele>313.264</ele>
        <time>2009-03-19T10:09:49Z</time>
      </trkpt>
      <trkpt lat="43.81794" lon="3.59265">
        <ele>311.908</ele>
        <time>2009-03-19T10:10:00Z</time>
      </trkpt>
      <trkpt lat="43.81792" lon="3.59265">
        <ele>312.122</ele>
        <time>2009-03-19T10:10:02Z</time>
      </trkpt>
      <trkpt lat="43.8178" lon="3.59259">
        <ele>314.045</ele>
        <time>2009-03-19T10:10:12Z</time>
      </trkpt>
      <trkpt lat="43.81775" lon="3.59259">
        <ele>314.454</ele>
        <time>2009-03-19T10:10:15Z</time>
      </trkpt>
      <trkpt lat="43.81769" lon="3.59258">
        <ele>314.518</ele>
        <time>2009-03-19T10:10:19Z</time>
      </trkpt>
      <trkpt lat="43.81758" lon="3.59251">
        <ele>315.468</ele>
        <time>2009-03-19T10:10:30Z</time>
      </trkpt>
      <trkpt lat="43.8174" lon="3.59246">
        <ele>316.434</ele>
        <time>2009-03-19T10:10:43Z</time>
      </trkpt>
      <trkpt lat="43.81717" lon="3.59237">
        <ele>318.695</ele>
        <time>2009-03-19T10:11:02Z</time>
      </trkpt>
      <trkpt lat="43.81708" lon="3.59227">
        <ele>321.206</ele>
        <time>2009-03-19T10:11:12Z</time>
      </trkpt>
      <trkpt lat="43.81701" lon="3.59218">
        <ele>321.119</ele>
        <time>2009-03-19T10:11:20Z</time>
      </trkpt>
      <trkpt lat="43.81687" lon="3.59206">
        <ele>320.582</ele>
        <time>2009-03-19T10:11:33Z</time>
      </trkpt>
      <trkpt lat="43.81674" lon="3.59195">
        <ele>321.44</ele>
        <time>2009-03-19T10:11:46Z</time>
      </trkpt>
      <trkpt lat="43.8166" lon="3.59179">
        <ele>322.543</ele>
        <time>2009-03-19T10:11:59Z</time>
      </trkpt>
      <trkpt lat="43.81647" lon="3.59168">
        <ele>322.707</ele>
        <time>2009-03-19T10:12:12Z</time>
      </trkpt>
      <trkpt lat="43.81645" lon="3.59165">
        <ele>322.46</ele>
        <time>2009-03-19T10:12:17Z</time>
      </trkpt>
      <trkpt lat="43.81639" lon="3.59146">
        <ele>323.607</ele>
        <time>2009-03-19T10:12:29Z</time>
      </trkpt>
      <trkpt lat="43.81634" lon="3.59125">
        <ele>326.103</ele>
        <time>2009-03-19T10:12:42Z</time>
      </trkpt>
      <trkpt lat="43.81633" lon="3.5912">
        <ele>326.41</ele>
        <time>2009-03-19T10:12:45Z</time>
      </trkpt>
      <trkpt lat="43.8163" lon="3.59107">
        <ele>326.691</ele>
        <time>2009-03-19T10:12:52Z</time>
      </trkpt>
      <trkpt lat="43.81623" lon="3.59079">
        <ele>327.467</ele>
        <time>2009-03-19T10:13:09Z</time>
      </trkpt>
      <trkpt lat="43.81617" lon="3.59052">
        <ele>327.057</ele>
        <time>2009-03-19T10:13:26Z</time>
      </trkpt>
      <trkpt lat="43.81618" lon="3.59026">
        <ele>325.607</ele>
        <time>2009-03-19T10:13:42Z</time>
      </trkpt>
      <trkpt lat="43.81622" lon="3.59016">
        <ele>325.073</ele>
        <time>2009-03-19T10:13:48Z</time>
      </trkpt>
      <trkpt lat="43.81626" lon="3.58997">
        <ele>322.82</ele>
        <time>2009-03-19T10:14:00Z</time>
      </trkpt>
      <trkpt lat="43.81626" lon="3.58988">
        <ele>321.396</ele>
        <time>2009-03-19T10:14:06Z</time>
      </trkpt>
      <trkpt lat="43.81625" lon="3.58974">
        <ele>319.143</ele>
        <time>2009-03-19T10:14:17Z</time>
      </trkpt>
      <trkpt lat="43.81624" lon="3.58972">
        <ele>319.673</ele>
        <time>2009-03-19T10:14:27Z</time>
      </trkpt>
      <trkpt lat="43.81622" lon="3.58952">
        <ele>317.904</ele>
        <time>2009-03-19T10:14:37Z</time>
      </trkpt>
      <trkpt lat="43.81622" lon="3.58945">
        <ele>317.4</ele>
        <time>2009-03-19T10:14:41Z</time>
      </trkpt>
      <trkpt lat="43.81622" lon="3.58913">
        <ele>317.801</ele>
        <time>2009-03-19T10:14:59Z</time>
      </trkpt>
      <trkpt lat="43.81621" lon="3.58912">
        <ele>317.49</ele>
        <time>2009-03-19T10:15:14Z</time>
      </trkpt>
      <trkpt lat="43.81621" lon="3.58913">
        <ele>318.404</ele>
        <time>2009-03-19T10:15:34Z</time>
      </trkpt>
      <trkpt lat="43.8162" lon="3.5891">
        <ele>319.157</ele>
        <time>2009-03-19T10:16:02Z</time>
      </trkpt>
      <trkpt lat="43.81618" lon="3.58909">
        <ele>319.068</ele>
        <time>2009-03-19T10:16:28Z</time>
      </trkpt>
      <trkpt lat="43.8162" lon="3.58912">
        <ele>318.452</ele>
        <time>2009-03-19T10:16:42Z</time>
      </trkpt>
      <trkpt lat="43.8162" lon="3.58915">
        <ele>317.248</ele>
        <time>2009-03-19T10:16:51Z</time>
      </trkpt>
      <trkpt lat="43.8162" lon="3.58915">
        <ele>318.751</ele>
        <time>2009-03-19T10:16:54Z</time>
      </trkpt>
      <trkpt lat="43.8162" lon="3.58913">
        <ele>317.672</ele>
        <time>2009-03-19T10:17:18Z</time>
      </trkpt>
      <trkpt lat="43.81622" lon="3.58914">
        <ele>317.065</ele>
        <time>2009-03-19T10:17:30Z</time>
      </trkpt>
      <trkpt lat="43.81621" lon="3.58915">
        <ele>317.489</ele>
        <time>2009-03-19T10:17:45Z</time>
      </trkpt>
      <trkpt lat="43.81622" lon="3.58913">
        <ele>317.997</ele>
        <time>2009-03-19T10:17:57Z</time>
      </trkpt>
      <trkpt lat="43.81625" lon="3.58899">
        <ele>317.094</ele>
        <time>2009-03-19T10:18:09Z</time>
      </trkpt>
      <trkpt lat="43.81626" lon="3.58892">
        <ele>317.156</ele>
        <time>2009-03-19T10:18:13Z</time>
      </trkpt>
      <trkpt lat="43.81627" lon="3.58882">
        <ele>316.965</ele>
        <time>2009-03-19T10:18:19Z</time>
      </trkpt>
      <trkpt lat="43.81629" lon="3.58865">
        <ele>315.79</ele>
        <time>2009-03-19T10:18:31Z</time>
      </trkpt>
      <trkpt lat="43.8163" lon="3.5886">
        <ele>315.588</ele>
        <time>2009-03-19T10:18:34Z</time>
      </trkpt>
      <trkpt lat="43.81632" lon="3.58854">
        <ele>315.362</ele>
        <time>2009-03-19T10:18:38Z</time>
      </trkpt>
      <trkpt lat="43.81636" lon="3.58841">
        <ele>315.19</ele>
        <time>2009-03-19T10:18:45Z</time>
      </trkpt>
      <trkpt lat="43.8164" lon="3.58828">
        <ele>314.758</ele>
        <time>2009-03-19T10:18:55Z</time>
      </trkpt>
      <trkpt lat="43.81642" lon="3.58821">
        <ele>315.263</ele>
        <time>2009-03-19T10:19:00Z</time>
      </trkpt>
      <trkpt lat="43.81648" lon="3.58799">
        <ele>313.809</ele>
        <time>2009-03-19T10:19:14Z</time>
      </trkpt>
      <trkpt lat="43.8165" lon="3.58795">
        <ele>313.379</ele>
        <time>2009-03-19T10:19:18Z</time>
      </trkpt>
      <trkpt lat="43.81655" lon="3.58791">
        <ele>313.628</ele>
        <time>2009-03-19T10:19:23Z</time>
      </trkpt>
      <trkpt lat="43.81665" lon="3.58766">
        <ele>311.894</ele>
        <time>2009-03-19T10:19:39Z</time>
      </trkpt>
      <trkpt lat="43.81672" lon="3.58754">
        <ele>310.456</ele>
        <time>2009-03-19T10:19:49Z</time>
      </trkpt>
      <trkpt lat="43.81673" lon="3.58753">
        <ele>309.783</ele>
        <time>2009-03-19T10:19:50Z</time>
      </trkpt>
      <trkpt lat="43.81677" lon="3.58746">
        <ele>309.182</ele>
        <time>2009-03-19T10:19:55Z</time>
      </trkpt>
      <trkpt lat="43.8168" lon="3.58742">
        <ele>308.264</ele>
        <time>2009-03-19T10:19:59Z</time>
      </trkpt>
      <trkpt lat="43.8169" lon="3.58723">
        <ele>306.965</ele>
        <time>2009-03-19T10:20:11Z</time>
      </trkpt>
      <trkpt lat="43.81698" lon="3.58712">
        <ele>305.747</ele>
        <time>2009-03-19T10:20:21Z</time>
      </trkpt>
      <trkpt lat="43.817" lon="3.5871">
        <ele>305.332</ele>
        <time>2009-03-19T10:20:23Z</time>
      </trkpt>
      <trkpt lat="43.81708" lon="3.58697">
        <ele>303.729</ele>
        <time>2009-03-19T10:20:32Z</time>
      </trkpt>
      <trkpt lat="43.8171" lon="3.58693">
        <ele>304.084</ele>
        <time>2009-03-19T10:20:34Z</time>
      </trkpt>
      <trkpt lat="43.81712" lon="3.58689">
        <ele>303.085</ele>
        <time>2009-03-19T10:20:37Z</time>
      </trkpt>
      <trkpt lat="43.81715" lon="3.58685">
        <ele>303.212</ele>
        <time>2009-03-19T10:20:40Z</time>
      </trkpt>
      <trkpt lat="43.81724" lon="3.58675">
        <ele>302.825</ele>
        <time>2009-03-19T10:20:50Z</time>
      </trkpt>
      <trkpt lat="43.81736" lon="3.58665">
        <ele>302.191</ele>
        <time>2009-03-19T10:21:01Z</time>
      </trkpt>
      <trkpt lat="43.81737" lon="3.58662">
        <ele>301.659</ele>
        <time>2009-03-19T10:21:03Z</time>
      </trkpt>
      <trkpt lat="43.8174" lon="3.58647">
        <ele>301.54</ele>
        <time>2009-03-19T10:21:12Z</time>
      </trkpt>
      <trkpt lat="43.81737" lon="3.58628">
        <ele>301.423</ele>
        <time>2009-03-19T10:21:19Z</time>
      </trkpt>
      <trkpt lat="43.81732" lon="3.58599">
        <ele>301.881</ele>
        <time>2009-03-19T10:21:33Z</time>
      </trkpt>
      <trkpt lat="43.81728" lon="3.58579">
        <ele>301.025</ele>
        <time>2009-03-19T10:21:46Z</time>
      </trkpt>
      <trkpt lat="43.81725" lon="3.58564">
        <ele>301.041</ele>
        <time>2009-03-19T10:21:55Z</time>
      </trkpt>
      <trkpt lat="43.81726" lon="3.5856">
        <ele>300.887</ele>
        <time>2009-03-19T10:21:59Z</time>
      </trkpt>
      <trkpt lat="43.81728" lon="3.5854">
        <ele>301.603</ele>
        <time>2009-03-19T10:22:11Z</time>
      </trkpt>
      <trkpt lat="43.81732" lon="3.58522">
        <ele>300.872</ele>
        <time>2009-03-19T10:22:21Z</time>
      </trkpt>
      <trkpt lat="43.8173" lon="3.58503">
        <ele>299.314</ele>
        <time>2009-03-19T10:22:34Z</time>
      </trkpt>
      <trkpt lat="43.81726" lon="3.58478">
        <ele>297.594</ele>
        <time>2009-03-19T10:22:48Z</time>
      </trkpt>
      <trkpt lat="43.81724" lon="3.58468">
        <ele>297.858</ele>
        <time>2009-03-19T10:22:53Z</time>
      </trkpt>
      <trkpt lat="43.81724" lon="3.5845">
        <ele>297.089</ele>
        <time>2009-03-19T10:23:03Z</time>
      </trkpt>
      <trkpt lat="43.81724" lon="3.58441">
        <ele>297.684</ele>
        <time>2009-03-19T10:23:08Z</time>
      </trkpt>
      <trkpt lat="43.81722" lon="3.58429">
        <ele>296.66</ele>
        <time>2009-03-19T10:23:14Z</time>
      </trkpt>
      <trkpt lat="43.81722" lon="3.58426">
        <ele>296.859</ele>
        <time>2009-03-19T10:23:16Z</time>
      </trkpt>
      <trkpt lat="43.81716" lon="3.58417">
        <ele>295.425</ele>
        <time>2009-03-19T10:23:21Z</time>
      </trkpt>
      <trkpt lat="43.81711" lon="3.58416">
        <ele>295.663</ele>
        <time>2009-03-19T10:23:26Z</time>
      </trkpt>
      <trkpt lat="43.81705" lon="3.58418">
        <ele>295.299</ele>
        <time>2009-03-19T10:23:31Z</time>
      </trkpt>
      <trkpt lat="43.81697" lon="3.58429">
        <ele>294.311</ele>
        <time>2009-03-19T10:23:46Z</time>
      </trkpt>
      <trkpt lat="43.81694" lon="3.58418">
        <ele>297.251</ele>
        <time>2009-03-19T10:23:57Z</time>
      </trkpt>
      <trkpt lat="43.81694" lon="3.58417">
        <ele>297.251</ele>
        <time>2009-03-19T10:23:58Z</time>
      </trkpt>
      <trkpt lat="43.81694" lon="3.58413">
        <ele>300.298</ele>
        <time>2009-03-19T10:24:09Z</time>
      </trkpt>
      <trkpt lat="43.81694" lon="3.58409">
        <ele>299.468</ele>
        <time>2009-03-19T10:24:34Z</time>
      </trkpt>
      <trkpt lat="43.81695" lon="3.58404">
        <ele>300.092</ele>
        <time>2009-03-19T10:24:43Z</time>
      </trkpt>
      <trkpt lat="43.81694" lon="3.58402">
        <ele>301.659</ele>
        <time>2009-03-19T10:24:45Z</time>
      </trkpt>
      <trkpt lat="43.81694" lon="3.584">
        <ele>301.073</ele>
        <time>2009-03-19T10:24:47Z</time>
      </trkpt>
      <trkpt lat="43.81693" lon="3.58399">
        <ele>301.519</ele>
        <time>2009-03-19T10:24:49Z</time>
      </trkpt>
      <trkpt lat="43.81689" lon="3.58394">
        <ele>303.063</ele>
        <time>2009-03-19T10:24:56Z</time>
      </trkpt>
      <trkpt lat="43.8168" lon="3.58391">
        <ele>306.279</ele>
        <time>2009-03-19T10:25:08Z</time>
      </trkpt>
      <trkpt lat="43.81676" lon="3.5839">
        <ele>308.755</ele>
        <time>2009-03-19T10:25:18Z</time>
      </trkpt>
      <trkpt lat="43.81675" lon="3.58387">
        <ele>309.631</ele>
        <time>2009-03-19T10:25:22Z</time>
      </trkpt>
      <trkpt lat="43.81673" lon="3.58385">
        <ele>309.785</ele>
        <time>2009-03-19T10:25:33Z</time>
      </trkpt>
      <trkpt lat="43.81669" lon="3.58383">
        <ele>310.454</ele>
        <time>2009-03-19T10:25:45Z</time>
      </trkpt>
      <trkpt lat="43.81668" lon="3.58378">
        <ele>302.974</ele>
        <time>2009-03-19T10:25:53Z</time>
      </trkpt>
      <trkpt lat="43.81668" lon="3.58377">
        <ele>318.068</ele>
        <time>2009-03-19T10:25:58Z</time>
      </trkpt>
      <trkpt lat="43.81668" lon="3.58376">
        <ele>311.362</ele>
        <time>2009-03-19T10:25:59Z</time>
      </trkpt>
      <trkpt lat="43.81669" lon="3.58377">
        <ele>311.125</ele>
        <time>2009-03-19T10:26:10Z</time>
      </trkpt>
      <trkpt lat="43.81667" lon="3.58377">
        <ele>311.45</ele>
        <time>2009-03-19T10:26:25Z</time>
      </trkpt>
      <trkpt lat="43.81665" lon="3.58376">
        <ele>311.639</ele>
        <time>2009-03-19T10:28:08Z</time>
      </trkpt>
      <trkpt lat="43.81664" lon="3.58376">
        <ele>311.364</ele>
        <time>2009-03-19T10:28:29Z</time>
      </trkpt>
      <trkpt lat="43.81664" lon="3.58374">
        <ele>311.328</ele>
        <time>2009-03-19T10:29:09Z</time>
      </trkpt>
      <trkpt lat="43.81666" lon="3.5837">
        <ele>311.99</ele>
        <time>2009-03-19T10:29:39Z</time>
      </trkpt>
      <trkpt lat="43.81664" lon="3.58376">
        <ele>312.491</ele>
        <time>2009-03-19T10:30:23Z</time>
      </trkpt>
      <trkpt lat="43.81665" lon="3.58377">
        <ele>313.089</ele>
        <time>2009-03-19T10:31:42Z</time>
      </trkpt>
      <trkpt lat="43.81667" lon="3.58382">
        <ele>312.674</ele>
        <time>2009-03-19T10:34:14Z</time>
      </trkpt>
      <trkpt lat="43.81671" lon="3.58377">
        <ele>315.479</ele>
        <time>2009-03-19T10:34:29Z</time>
      </trkpt>
      <trkpt lat="43.81671" lon="3.58376">
        <ele>313.978</ele>
        <time>2009-03-19T10:34:30Z</time>
      </trkpt>
      <trkpt lat="43.81677" lon="3.58372">
        <ele>314.261</ele>
        <time>2009-03-19T10:34:42Z</time>
      </trkpt>
      <trkpt lat="43.81675" lon="3.58366">
        <ele>315.177</ele>
        <time>2009-03-19T10:34:53Z</time>
      </trkpt>
      <trkpt lat="43.81672" lon="3.58366">
        <ele>315.992</ele>
        <time>2009-03-19T10:34:57Z</time>
      </trkpt>
      <trkpt lat="43.81665" lon="3.58371">
        <ele>315.951</ele>
        <time>2009-03-19T10:35:08Z</time>
      </trkpt>
      <trkpt lat="43.81662" lon="3.58368">
        <ele>317.634</ele>
        <time>2009-03-19T10:35:12Z</time>
      </trkpt>
      <trkpt lat="43.81653" lon="3.58363">
        <ele>318.913</ele>
        <time>2009-03-19T10:35:25Z</time>
      </trkpt>
      <trkpt lat="43.81652" lon="3.58356">
        <ele>320.025</ele>
        <time>2009-03-19T10:35:37Z</time>
      </trkpt>
      <trkpt lat="43.81656" lon="3.58349">
        <ele>321.993</ele>
        <time>2009-03-19T10:35:46Z</time>
      </trkpt>
      <trkpt lat="43.8166" lon="3.58343">
        <ele>323.209</ele>
        <time>2009-03-19T10:35:56Z</time>
      </trkpt>
      <trkpt lat="43.81658" lon="3.58338">
        <ele>326.435</ele>
        <time>2009-03-19T10:36:05Z</time>
      </trkpt>
      <trkpt lat="43.81658" lon="3.58336">
        <ele>326.071</ele>
        <time>2009-03-19T10:36:08Z</time>
      </trkpt>
      <trkpt lat="43.81661" lon="3.58326">
        <ele>327.678</ele>
        <time>2009-03-19T10:36:20Z</time>
      </trkpt>
      <trkpt lat="43.81662" lon="3.58324">
        <ele>329.361</ele>
        <time>2009-03-19T10:36:24Z</time>
      </trkpt>
      <trkpt lat="43.81665" lon="3.58318">
        <ele>331.813</ele>
        <time>2009-03-19T10:36:37Z</time>
      </trkpt>
      <trkpt lat="43.81669" lon="3.58313">
        <ele>333.484</ele>
        <time>2009-03-19T10:36:46Z</time>
      </trkpt>
      <trkpt lat="43.81674" lon="3.58311">
        <ele>332.728</ele>
        <time>2009-03-19T10:36:53Z</time>
      </trkpt>
      <trkpt lat="43.81684" lon="3.58303">
        <ele>335.625</ele>
        <time>2009-03-19T10:37:06Z</time>
      </trkpt>
      <trkpt lat="43.81685" lon="3.583">
        <ele>337.031</ele>
        <time>2009-03-19T10:37:09Z</time>
      </trkpt>
      <trkpt lat="43.8169" lon="3.58296">
        <ele>337.593</ele>
        <time>2009-03-19T10:37:21Z</time>
      </trkpt>
      <trkpt lat="43.81695" lon="3.58295">
        <ele>337.761</ele>
        <time>2009-03-19T10:37:43Z</time>
      </trkpt>
      <trkpt lat="43.81697" lon="3.58293">
        <ele>339.247</ele>
        <time>2009-03-19T10:38:08Z</time>
      </trkpt>
      <trkpt lat="43.81695" lon="3.5829">
        <ele>338.728</ele>
        <time>2009-03-19T10:38:19Z</time>
      </trkpt>
      <trkpt lat="43.81697" lon="3.58289">
        <ele>339.113</ele>
        <time>2009-03-19T10:38:42Z</time>
      </trkpt>
      <trkpt lat="43.81699" lon="3.58283">
        <ele>340.624</ele>
        <time>2009-03-19T10:38:47Z</time>
      </trkpt>
      <trkpt lat="43.81703" lon="3.58272">
        <ele>345.108</ele>
        <time>2009-03-19T10:38:56Z</time>
      </trkpt>
      <trkpt lat="43.81704" lon="3.58272">
        <ele>344.233</ele>
        <time>2009-03-19T10:38:57Z</time>
      </trkpt>
      <trkpt lat="43.81704" lon="3.58271">
        <ele>344.006</ele>
        <time>2009-03-19T10:38:59Z</time>
      </trkpt>
      <trkpt lat="43.8171" lon="3.58262">
        <ele>346.329</ele>
        <time>2009-03-19T10:39:07Z</time>
      </trkpt>
      <trkpt lat="43.81711" lon="3.58259">
        <ele>345.853</ele>
        <time>2009-03-19T10:39:09Z</time>
      </trkpt>
      <trkpt lat="43.81716" lon="3.58249">
        <ele>347.942</ele>
        <time>2009-03-19T10:39:17Z</time>
      </trkpt>
      <trkpt lat="43.81719" lon="3.58245">
        <ele>349.018</ele>
        <time>2009-03-19T10:39:22Z</time>
      </trkpt>
      <trkpt lat="43.81724" lon="3.58236">
        <ele>349.788</ele>
        <time>2009-03-19T10:39:32Z</time>
      </trkpt>
      <trkpt lat="43.81727" lon="3.58231">
        <ele>350.785</ele>
        <time>2009-03-19T10:39:37Z</time>
      </trkpt>
      <trkpt lat="43.8173" lon="3.58223">
        <ele>352.218</ele>
        <time>2009-03-19T10:39:45Z</time>
      </trkpt>
      <trkpt lat="43.81736" lon="3.58211">
        <ele>354.259</ele>
        <time>2009-03-19T10:39:57Z</time>
      </trkpt>
      <trkpt lat="43.81738" lon="3.58207">
        <ele>355.454</ele>
        <time>2009-03-19T10:40:01Z</time>
      </trkpt>
      <trkpt lat="43.8174" lon="3.58204">
        <ele>356.184</ele>
        <time>2009-03-19T10:40:04Z</time>
      </trkpt>
      <trkpt lat="43.81745" lon="3.58195">
        <ele>356.668</ele>
        <time>2009-03-19T10:40:11Z</time>
      </trkpt>
      <trkpt lat="43.8175" lon="3.58185">
        <ele>357.268</ele>
        <time>2009-03-19T10:40:24Z</time>
      </trkpt>
      <trkpt lat="43.81754" lon="3.58178">
        <ele>358.208</ele>
        <time>2009-03-19T10:40:32Z</time>
      </trkpt>
      <trkpt lat="43.81755" lon="3.58177">
        <ele>358.821</ele>
        <time>2009-03-19T10:40:33Z</time>
      </trkpt>
      <trkpt lat="43.81762" lon="3.58163">
        <ele>361.578</ele>
        <time>2009-03-19T10:40:45Z</time>
      </trkpt>
      <trkpt lat="43.81768" lon="3.58156">
        <ele>362.419</ele>
        <time>2009-03-19T10:40:56Z</time>
      </trkpt>
      <trkpt lat="43.81773" lon="3.58146">
        <ele>363.747</ele>
        <time>2009-03-19T10:41:06Z</time>
      </trkpt>
      <trkpt lat="43.81774" lon="3.58144">
        <ele>364.037</ele>
        <time>2009-03-19T10:41:08Z</time>
      </trkpt>
      <trkpt lat="43.81782" lon="3.58136">
        <ele>366.218</ele>
        <time>2009-03-19T10:41:23Z</time>
      </trkpt>
      <trkpt lat="43.81784" lon="3.58137">
        <ele>365.479</ele>
        <time>2009-03-19T10:41:43Z</time>
      </trkpt>
      <trkpt lat="43.81784" lon="3.58135">
        <ele>366.019</ele>
        <time>2009-03-19T10:41:58Z</time>
      </trkpt>
      <trkpt lat="43.81785" lon="3.58126">
        <ele>366.291</ele>
        <time>2009-03-19T10:42:08Z</time>
      </trkpt>
      <trkpt lat="43.81789" lon="3.58112">
        <ele>368.023</ele>
        <time>2009-03-19T10:42:21Z</time>
      </trkpt>
      <trkpt lat="43.81793" lon="3.58107">
        <ele>368.604</ele>
        <time>2009-03-19T10:42:26Z</time>
      </trkpt>
      <trkpt lat="43.81797" lon="3.58093">
        <ele>370.929</ele>
        <time>2009-03-19T10:42:41Z</time>
      </trkpt>
      <trkpt lat="43.81801" lon="3.58083">
        <ele>371.992</ele>
        <time>2009-03-19T10:42:53Z</time>
      </trkpt>
      <trkpt lat="43.81812" lon="3.58078">
        <ele>375.161</ele>
        <time>2009-03-19T10:43:05Z</time>
      </trkpt>
      <trkpt lat="43.81812" lon="3.58074">
        <ele>376.338</ele>
        <time>2009-03-19T10:43:12Z</time>
      </trkpt>
      <trkpt lat="43.81809" lon="3.58072">
        <ele>376.726</ele>
        <time>2009-03-19T10:43:15Z</time>
      </trkpt>
      <trkpt lat="43.81805" lon="3.5807">
        <ele>377.268</ele>
        <time>2009-03-19T10:43:18Z</time>
      </trkpt>
      <trkpt lat="43.81795" lon="3.58068">
        <ele>378.17</ele>
        <time>2009-03-19T10:43:28Z</time>
      </trkpt>
      <trkpt lat="43.81784" lon="3.58066">
        <ele>380.545</ele>
        <time>2009-03-19T10:43:40Z</time>
      </trkpt>
      <trkpt lat="43.81772" lon="3.58066">
        <ele>381.657</ele>
        <time>2009-03-19T10:43:53Z</time>
      </trkpt>
      <trkpt lat="43.81766" lon="3.58069">
        <ele>382.1</ele>
        <time>2009-03-19T10:44:07Z</time>
      </trkpt>
      <trkpt lat="43.8176" lon="3.5807">
        <ele>383.331</ele>
        <time>2009-03-19T10:44:20Z</time>
      </trkpt>
      <trkpt lat="43.81761" lon="3.58065">
        <ele>384.217</ele>
        <time>2009-03-19T10:44:24Z</time>
      </trkpt>
      <trkpt lat="43.81763" lon="3.58063">
        <ele>384.541</ele>
        <time>2009-03-19T10:44:26Z</time>
      </trkpt>
      <trkpt lat="43.81765" lon="3.58063">
        <ele>385.015</ele>
        <time>2009-03-19T10:44:28Z</time>
      </trkpt>
      <trkpt lat="43.81767" lon="3.58055">
        <ele>385.1</ele>
        <time>2009-03-19T10:44:43Z</time>
      </trkpt>
      <trkpt lat="43.81771" lon="3.58044">
        <ele>386.953</ele>
        <time>2009-03-19T10:44:55Z</time>
      </trkpt>
      <trkpt lat="43.81772" lon="3.58043">
        <ele>387.1</ele>
        <time>2009-03-19T10:44:56Z</time>
      </trkpt>
      <trkpt lat="43.81775" lon="3.5803">
        <ele>390.202</ele>
        <time>2009-03-19T10:45:08Z</time>
      </trkpt>
      <trkpt lat="43.8178" lon="3.58018">
        <ele>392.022</ele>
        <time>2009-03-19T10:45:20Z</time>
      </trkpt>
      <trkpt lat="43.81787" lon="3.58011">
        <ele>394.038</ele>
        <time>2009-03-19T10:45:32Z</time>
      </trkpt>
      <trkpt lat="43.81784" lon="3.58006">
        <ele>395.377</ele>
        <time>2009-03-19T10:45:40Z</time>
      </trkpt>
      <trkpt lat="43.81782" lon="3.58007">
        <ele>396.673</ele>
        <time>2009-03-19T10:45:42Z</time>
      </trkpt>
      <trkpt lat="43.81775" lon="3.58006">
        <ele>398.221</ele>
        <time>2009-03-19T10:45:49Z</time>
      </trkpt>
      <trkpt lat="43.81768" lon="3.58005">
        <ele>400.714</ele>
        <time>2009-03-19T10:45:58Z</time>
      </trkpt>
      <trkpt lat="43.81772" lon="3.5799">
        <ele>403.045</ele>
        <time>2009-03-19T10:46:10Z</time>
      </trkpt>
      <trkpt lat="43.81772" lon="3.57988">
        <ele>402.162</ele>
        <time>2009-03-19T10:46:12Z</time>
      </trkpt>
      <trkpt lat="43.81774" lon="3.5798">
        <ele>404.404</ele>
        <time>2009-03-19T10:46:19Z</time>
      </trkpt>
      <trkpt lat="43.81781" lon="3.57974">
        <ele>405.553</ele>
        <time>2009-03-19T10:46:28Z</time>
      </trkpt>
      <trkpt lat="43.81789" lon="3.57975">
        <ele>406.969</ele>
        <time>2009-03-19T10:46:47Z</time>
      </trkpt>
      <trkpt lat="43.81793" lon="3.57975">
        <ele>406.983</ele>
        <time>2009-03-19T10:47:09Z</time>
      </trkpt>
      <trkpt lat="43.81802" lon="3.57972">
        <ele>408.838</ele>
        <time>2009-03-19T10:47:20Z</time>
      </trkpt>
      <trkpt lat="43.81806" lon="3.57968">
        <ele>410.268</ele>
        <time>2009-03-19T10:47:26Z</time>
      </trkpt>
      <trkpt lat="43.81808" lon="3.57965">
        <ele>411.297</ele>
        <time>2009-03-19T10:47:30Z</time>
      </trkpt>
      <trkpt lat="43.81815" lon="3.57955">
        <ele>413.611</ele>
        <time>2009-03-19T10:47:42Z</time>
      </trkpt>
      <trkpt lat="43.81821" lon="3.57947">
        <ele>415.038</ele>
        <time>2009-03-19T10:47:50Z</time>
      </trkpt>
      <trkpt lat="43.81823" lon="3.57942">
        <ele>415.247</ele>
        <time>2009-03-19T10:47:55Z</time>
      </trkpt>
      <trkpt lat="43.81821" lon="3.57942">
        <ele>417.431</ele>
        <time>2009-03-19T10:48:00Z</time>
      </trkpt>
      <trkpt lat="43.81819" lon="3.57942">
        <ele>416.768</ele>
        <time>2009-03-19T10:48:02Z</time>
      </trkpt>
      <trkpt lat="43.81811" lon="3.5794">
        <ele>420.661</ele>
        <time>2009-03-19T10:48:14Z</time>
      </trkpt>
      <trkpt lat="43.81802" lon="3.57938">
        <ele>421.372</ele>
        <time>2009-03-19T10:48:27Z</time>
      </trkpt>
      <trkpt lat="43.81801" lon="3.57929">
        <ele>422.306</ele>
        <time>2009-03-19T10:48:37Z</time>
      </trkpt>
      <trkpt lat="43.81804" lon="3.57923">
        <ele>424.807</ele>
        <time>2009-03-19T10:48:44Z</time>
      </trkpt>
      <trkpt lat="43.8181" lon="3.57913">
        <ele>426.66</ele>
        <time>2009-03-19T10:48:55Z</time>
      </trkpt>
      <trkpt lat="43.81816" lon="3.57903">
        <ele>428.878</ele>
        <time>2009-03-19T10:49:04Z</time>
      </trkpt>
      <trkpt lat="43.81824" lon="3.57893">
        <ele>429.986</ele>
        <time>2009-03-19T10:49:19Z</time>
      </trkpt>
      <trkpt lat="43.81831" lon="3.57883">
        <ele>432.277</ele>
        <time>2009-03-19T10:49:32Z</time>
      </trkpt>
      <trkpt lat="43.81832" lon="3.57882">
        <ele>432.649</ele>
        <time>2009-03-19T10:49:35Z</time>
      </trkpt>
      <trkpt lat="43.81834" lon="3.57876">
        <ele>434.333</ele>
        <time>2009-03-19T10:49:41Z</time>
      </trkpt>
      <trkpt lat="43.81838" lon="3.57866">
        <ele>435.073</ele>
        <time>2009-03-19T10:49:51Z</time>
      </trkpt>
      <trkpt lat="43.81841" lon="3.57856">
        <ele>437.329</ele>
        <time>2009-03-19T10:50:01Z</time>
      </trkpt>
      <trkpt lat="43.81836" lon="3.57853">
        <ele>439.433</ele>
        <time>2009-03-19T10:50:12Z</time>
      </trkpt>
      <trkpt lat="43.81833" lon="3.57851">
        <ele>439.501</ele>
        <time>2009-03-19T10:50:23Z</time>
      </trkpt>
      <trkpt lat="43.81834" lon="3.57842">
        <ele>441.767</ele>
        <time>2009-03-19T10:50:33Z</time>
      </trkpt>
      <trkpt lat="43.81835" lon="3.57841">
        <ele>442.584</ele>
        <time>2009-03-19T10:50:35Z</time>
      </trkpt>
      <trkpt lat="43.81838" lon="3.57834">
        <ele>442.991</ele>
        <time>2009-03-19T10:50:42Z</time>
      </trkpt>
      <trkpt lat="43.81839" lon="3.57832">
        <ele>443.318</ele>
        <time>2009-03-19T10:50:44Z</time>
      </trkpt>
      <trkpt lat="43.81838" lon="3.57826">
        <ele>442.879</ele>
        <time>2009-03-19T10:50:48Z</time>
      </trkpt>
      <trkpt lat="43.8184" lon="3.57816">
        <ele>445.017</ele>
        <time>2009-03-19T10:50:58Z</time>
      </trkpt>
      <trkpt lat="43.81842" lon="3.57812">
        <ele>445.62</ele>
        <time>2009-03-19T10:51:02Z</time>
      </trkpt>
      <trkpt lat="43.81842" lon="3.57806">
        <ele>446.47</ele>
        <time>2009-03-19T10:51:17Z</time>
      </trkpt>
      <trkpt lat="43.81841" lon="3.57807">
        <ele>446.13</ele>
        <time>2009-03-19T10:52:48Z</time>
      </trkpt>
      <trkpt lat="43.8184" lon="3.57803">
        <ele>446.853</ele>
        <time>2009-03-19T10:53:31Z</time>
      </trkpt>
      <trkpt lat="43.8184" lon="3.57804">
        <ele>448.743</ele>
        <time>2009-03-19T10:54:03Z</time>
      </trkpt>
      <trkpt lat="43.81839" lon="3.57802">
        <ele>447.93</ele>
        <time>2009-03-19T10:55:07Z</time>
      </trkpt>
      <trkpt lat="43.81839" lon="3.57801">
        <ele>447.066</ele>
        <time>2009-03-19T10:55:42Z</time>
      </trkpt>
      <trkpt lat="43.81841" lon="3.57808">
        <ele>448.858</ele>
        <time>2009-03-19T10:56:33Z</time>
      </trkpt>
      <trkpt lat="43.8184" lon="3.57806">
        <ele>447.656</ele>
        <time>2009-03-19T10:57:11Z</time>
      </trkpt>
      <trkpt lat="43.81842" lon="3.57809">
        <ele>448.664</ele>
        <time>2009-03-19T10:57:53Z</time>
      </trkpt>
      <trkpt lat="43.8184" lon="3.57804">
        <ele>445.592</ele>
        <time>2009-03-19T11:05:41Z</time>
      </trkpt>
      <trkpt lat="43.81841" lon="3.57804">
        <ele>448.61</ele>
        <time>2009-03-19T11:12:57Z</time>
      </trkpt>
      <trkpt lat="43.81843" lon="3.57805">
        <ele>449.207</ele>
        <time>2009-03-19T11:17:17Z</time>
      </trkpt>
      <trkpt lat="43.81845" lon="3.578">
        <ele>449.955</ele>
        <time>2009-03-19T11:17:42Z</time>
      </trkpt>
      <trkpt lat="43.81846" lon="3.57799">
        <ele>449.807</ele>
        <time>2009-03-19T11:17:45Z</time>
      </trkpt>
      <trkpt lat="43.81847" lon="3.57791">
        <ele>450.497</ele>
        <time>2009-03-19T11:17:55Z</time>
      </trkpt>
      <trkpt lat="43.81848" lon="3.5779">
        <ele>451.73</ele>
        <time>2009-03-19T11:17:59Z</time>
      </trkpt>
      <trkpt lat="43.81855" lon="3.57783">
        <ele>453.125</ele>
        <time>2009-03-19T11:18:19Z</time>
      </trkpt>
      <trkpt lat="43.81857" lon="3.57782">
        <ele>453.765</ele>
        <time>2009-03-19T11:18:31Z</time>
      </trkpt>
      <trkpt lat="43.81857" lon="3.57782">
        <ele>454.571</ele>
        <time>2009-03-19T11:18:33Z</time>
      </trkpt>
      <trkpt lat="43.81863" lon="3.57781">
        <ele>454.31</ele>
        <time>2009-03-19T11:18:54Z</time>
      </trkpt>
      <trkpt lat="43.8187" lon="3.57778">
        <ele>457.678</ele>
        <time>2009-03-19T11:19:05Z</time>
      </trkpt>
      <trkpt lat="43.81872" lon="3.57777">
        <ele>457.244</ele>
        <time>2009-03-19T11:19:08Z</time>
      </trkpt>
      <trkpt lat="43.81865" lon="3.57773">
        <ele>457.855</ele>
        <time>2009-03-19T11:19:18Z</time>
      </trkpt>
      <trkpt lat="43.81861" lon="3.5777">
        <ele>458.801</ele>
        <time>2009-03-19T11:19:29Z</time>
      </trkpt>
      <trkpt lat="43.81849" lon="3.57764">
        <ele>459.941</ele>
        <time>2009-03-19T11:19:47Z</time>
      </trkpt>
      <trkpt lat="43.81843" lon="3.5776">
        <ele>459.817</ele>
        <time>2009-03-19T11:19:57Z</time>
      </trkpt>
      <trkpt lat="43.81834" lon="3.57762">
        <ele>461.539</ele>
        <time>2009-03-19T11:20:10Z</time>
      </trkpt>
      <trkpt lat="43.8183" lon="3.57763">
        <ele>460.819</ele>
        <time>2009-03-19T11:20:23Z</time>
      </trkpt>
      <trkpt lat="43.8183" lon="3.57757">
        <ele>462.752</ele>
        <time>2009-03-19T11:20:35Z</time>
      </trkpt>
      <trkpt lat="43.81831" lon="3.57753">
        <ele>463.934</ele>
        <time>2009-03-19T11:20:50Z</time>
      </trkpt>
      <trkpt lat="43.81832" lon="3.57753">
        <ele>463.971</ele>
        <time>2009-03-19T11:20:52Z</time>
      </trkpt>
      <trkpt lat="43.81833" lon="3.57753">
        <ele>465.149</ele>
        <time>2009-03-19T11:20:54Z</time>
      </trkpt>
      <trkpt lat="43.81833" lon="3.57753">
        <ele>458.7</ele>
        <time>2009-03-19T11:21:05Z</time>
      </trkpt>
      <trkpt lat="43.81833" lon="3.57753">
        <ele>469.133</ele>
        <time>2009-03-19T11:21:06Z</time>
      </trkpt>
      <trkpt lat="43.81833" lon="3.57753">
        <ele>464.534</ele>
        <time>2009-03-19T11:21:07Z</time>
      </trkpt>
      <trkpt lat="43.81829" lon="3.57745">
        <ele>465.24</ele>
        <time>2009-03-19T11:21:19Z</time>
      </trkpt>
      <trkpt lat="43.81828" lon="3.57744">
        <ele>466.499</ele>
        <time>2009-03-19T11:21:21Z</time>
      </trkpt>
      <trkpt lat="43.81829" lon="3.57735">
        <ele>467.735</ele>
        <time>2009-03-19T11:21:31Z</time>
      </trkpt>
      <trkpt lat="43.8183" lon="3.57729">
        <ele>471.243</ele>
        <time>2009-03-19T11:21:39Z</time>
      </trkpt>
      <trkpt lat="43.81829" lon="3.57726">
        <ele>472.089</ele>
        <time>2009-03-19T11:21:43Z</time>
      </trkpt>
      <trkpt lat="43.8183" lon="3.57722">
        <ele>472.666</ele>
        <time>2009-03-19T11:21:55Z</time>
      </trkpt>
      <trkpt lat="43.81832" lon="3.57719">
        <ele>474.139</ele>
        <time>2009-03-19T11:22:07Z</time>
      </trkpt>
      <trkpt lat="43.81836" lon="3.57715">
        <ele>475.722</ele>
        <time>2009-03-19T11:22:25Z</time>
      </trkpt>
      <trkpt lat="43.81836" lon="3.57709">
        <ele>477.622</ele>
        <time>2009-03-19T11:22:40Z</time>
      </trkpt>
      <trkpt lat="43.8183" lon="3.57705">
        <ele>479.305</ele>
        <time>2009-03-19T11:22:52Z</time>
      </trkpt>
      <trkpt lat="43.81829" lon="3.57699">
        <ele>479.601</ele>
        <time>2009-03-19T11:23:07Z</time>
      </trkpt>
      <trkpt lat="43.81831" lon="3.57699">
        <ele>480.329</ele>
        <time>2009-03-19T11:23:10Z</time>
      </trkpt>
      <trkpt lat="43.8184" lon="3.57698">
        <ele>480.631</ele>
        <time>2009-03-19T11:23:22Z</time>
      </trkpt>
      <trkpt lat="43.81845" lon="3.57697">
        <ele>482.601</ele>
        <time>2009-03-19T11:23:31Z</time>
      </trkpt>
      <trkpt lat="43.81847" lon="3.57698">
        <ele>482.095</ele>
        <time>2009-03-19T11:23:33Z</time>
      </trkpt>
      <trkpt lat="43.81849" lon="3.57697">
        <ele>482.343</ele>
        <time>2009-03-19T11:23:35Z</time>
      </trkpt>
      <trkpt lat="43.81859" lon="3.57695">
        <ele>485.336</ele>
        <time>2009-03-19T11:23:49Z</time>
      </trkpt>
      <trkpt lat="43.81868" lon="3.57692">
        <ele>487.561</ele>
        <time>2009-03-19T11:24:02Z</time>
      </trkpt>
      <trkpt lat="43.81877" lon="3.57687">
        <ele>490.412</ele>
        <time>2009-03-19T11:24:15Z</time>
      </trkpt>
      <trkpt lat="43.8188" lon="3.57682">
        <ele>491.385</ele>
        <time>2009-03-19T11:24:28Z</time>
      </trkpt>
      <trkpt lat="43.81881" lon="3.57681">
        <ele>491.688</ele>
        <time>2009-03-19T11:24:29Z</time>
      </trkpt>
      <trkpt lat="43.81885" lon="3.57674">
        <ele>492.587</ele>
        <time>2009-03-19T11:24:39Z</time>
      </trkpt>
      <trkpt lat="43.81888" lon="3.57668">
        <ele>493.408</ele>
        <time>2009-03-19T11:24:46Z</time>
      </trkpt>
      <trkpt lat="43.81885" lon="3.57663">
        <ele>496.66</ele>
        <time>2009-03-19T11:24:56Z</time>
      </trkpt>
      <trkpt lat="43.81884" lon="3.57656">
        <ele>498.381</ele>
        <time>2009-03-19T11:25:04Z</time>
      </trkpt>
      <trkpt lat="43.81881" lon="3.57651">
        <ele>500.139</ele>
        <time>2009-03-19T11:25:15Z</time>
      </trkpt>
      <trkpt lat="43.81877" lon="3.57652">
        <ele>500.603</ele>
        <time>2009-03-19T11:25:19Z</time>
      </trkpt>
      <trkpt lat="43.81871" lon="3.57651">
        <ele>502.589</ele>
        <time>2009-03-19T11:25:34Z</time>
      </trkpt>
      <trkpt lat="43.81867" lon="3.57648">
        <ele>502.542</ele>
        <time>2009-03-19T11:26:08Z</time>
      </trkpt>
      <trkpt lat="43.81863" lon="3.57646">
        <ele>503.945</ele>
        <time>2009-03-19T11:26:11Z</time>
      </trkpt>
      <trkpt lat="43.81856" lon="3.57637">
        <ele>505.568</ele>
        <time>2009-03-19T11:26:23Z</time>
      </trkpt>
      <trkpt lat="43.81849" lon="3.57629">
        <ele>508.086</ele>
        <time>2009-03-19T11:26:37Z</time>
      </trkpt>
      <trkpt lat="43.81857" lon="3.57624">
        <ele>510.248</ele>
        <time>2009-03-19T11:26:48Z</time>
      </trkpt>
      <trkpt lat="43.81863" lon="3.57621">
        <ele>513.133</ele>
        <time>2009-03-19T11:26:55Z</time>
      </trkpt>
      <trkpt lat="43.8187" lon="3.57618">
        <ele>513.222</ele>
        <time>2009-03-19T11:27:04Z</time>
      </trkpt>
      <trkpt lat="43.8187" lon="3.57614">
        <ele>514.63</ele>
        <time>2009-03-19T11:27:13Z</time>
      </trkpt>
      <trkpt lat="43.81865" lon="3.57612">
        <ele>515.043</ele>
        <time>2009-03-19T11:27:22Z</time>
      </trkpt>
      <trkpt lat="43.81859" lon="3.57608">
        <ele>516.001</ele>
        <time>2009-03-19T11:27:33Z</time>
      </trkpt>
      <trkpt lat="43.81848" lon="3.57604">
        <ele>516.511</ele>
        <time>2009-03-19T11:28:08Z</time>
      </trkpt>
      <trkpt lat="43.81846" lon="3.57604">
        <ele>515.541</ele>
        <time>2009-03-19T11:28:11Z</time>
      </trkpt>
      <trkpt lat="43.81833" lon="3.57601">
        <ele>517.755</ele>
        <time>2009-03-19T11:28:26Z</time>
      </trkpt>
      <trkpt lat="43.81829" lon="3.57599">
        <ele>517.91</ele>
        <time>2009-03-19T11:28:31Z</time>
      </trkpt>
      <trkpt lat="43.81819" lon="3.57601">
        <ele>520.748</ele>
        <time>2009-03-19T11:28:39Z</time>
      </trkpt>
      <trkpt lat="43.81818" lon="3.57596">
        <ele>521.165</ele>
        <time>2009-03-19T11:28:44Z</time>
      </trkpt>
      <trkpt lat="43.81829" lon="3.57591">
        <ele>521.807</ele>
        <time>2009-03-19T11:28:56Z</time>
      </trkpt>
      <trkpt lat="43.81838" lon="3.57586">
        <ele>524.469</ele>
        <time>2009-03-19T11:29:09Z</time>
      </trkpt>
      <trkpt lat="43.81845" lon="3.57581">
        <ele>526.046</ele>
        <time>2009-03-19T11:29:19Z</time>
      </trkpt>
      <trkpt lat="43.81847" lon="3.57577">
        <ele>527.899</ele>
        <time>2009-03-19T11:29:23Z</time>
      </trkpt>
      <trkpt lat="43.81849" lon="3.57575">
        <ele>528.525</ele>
        <time>2009-03-19T11:29:27Z</time>
      </trkpt>
      <trkpt lat="43.81858" lon="3.57574">
        <ele>529.131</ele>
        <time>2009-03-19T11:29:35Z</time>
      </trkpt>
      <trkpt lat="43.81872" lon="3.57563">
        <ele>531.188</ele>
        <time>2009-03-19T11:29:50Z</time>
      </trkpt>
      <trkpt lat="43.81876" lon="3.57554">
        <ele>535.067</ele>
        <time>2009-03-19T11:29:58Z</time>
      </trkpt>
      <trkpt lat="43.81877" lon="3.57553">
        <ele>535.214</ele>
        <time>2009-03-19T11:29:59Z</time>
      </trkpt>
      <trkpt lat="43.81881" lon="3.57544">
        <ele>535.448</ele>
        <time>2009-03-19T11:30:06Z</time>
      </trkpt>
      <trkpt lat="43.81886" lon="3.5753">
        <ele>537.697</ele>
        <time>2009-03-19T11:30:18Z</time>
      </trkpt>
      <trkpt lat="43.81887" lon="3.57525">
        <ele>538.076</ele>
        <time>2009-03-19T11:30:22Z</time>
      </trkpt>
      <trkpt lat="43.81889" lon="3.5752">
        <ele>539.756</ele>
        <time>2009-03-19T11:30:26Z</time>
      </trkpt>
      <trkpt lat="43.81891" lon="3.57512">
        <ele>542.252</ele>
        <time>2009-03-19T11:30:33Z</time>
      </trkpt>
      <trkpt lat="43.8189" lon="3.57504">
        <ele>543.385</ele>
        <time>2009-03-19T11:30:40Z</time>
      </trkpt>
      <trkpt lat="43.81891" lon="3.57495">
        <ele>544.213</ele>
        <time>2009-03-19T11:30:49Z</time>
      </trkpt>
      <trkpt lat="43.81892" lon="3.57491">
        <ele>545.427</ele>
        <time>2009-03-19T11:31:01Z</time>
      </trkpt>
      <trkpt lat="43.81892" lon="3.5749">
        <ele>545.437</ele>
        <time>2009-03-19T11:31:03Z</time>
      </trkpt>
      <trkpt lat="43.81894" lon="3.57486">
        <ele>546.248</ele>
        <time>2009-03-19T11:31:06Z</time>
      </trkpt>
      <trkpt lat="43.81894" lon="3.57483">
        <ele>546.534</ele>
        <time>2009-03-19T11:31:09Z</time>
      </trkpt>
      <trkpt lat="43.81905" lon="3.57471">
        <ele>548.044</ele>
        <time>2009-03-19T11:31:22Z</time>
      </trkpt>
      <trkpt lat="43.81907" lon="3.57471">
        <ele>548.13</ele>
        <time>2009-03-19T11:31:24Z</time>
      </trkpt>
      <trkpt lat="43.8191" lon="3.57472">
        <ele>548.323</ele>
        <time>2009-03-19T11:31:26Z</time>
      </trkpt>
      <trkpt lat="43.81919" lon="3.57474">
        <ele>550.608</ele>
        <time>2009-03-19T11:31:37Z</time>
      </trkpt>
      <trkpt lat="43.81922" lon="3.57475">
        <ele>551.874</ele>
        <time>2009-03-19T11:31:40Z</time>
      </trkpt>
      <trkpt lat="43.81927" lon="3.57479">
        <ele>553.417</ele>
        <time>2009-03-19T11:31:45Z</time>
      </trkpt>
      <trkpt lat="43.81943" lon="3.57485">
        <ele>553.576</ele>
        <time>2009-03-19T11:31:59Z</time>
      </trkpt>
      <trkpt lat="43.8195" lon="3.57483">
        <ele>555.789</ele>
        <time>2009-03-19T11:32:11Z</time>
      </trkpt>
      <trkpt lat="43.8195" lon="3.57479">
        <ele>556.757</ele>
        <time>2009-03-19T11:32:18Z</time>
      </trkpt>
      <trkpt lat="43.81945" lon="3.57472">
        <ele>559.192</ele>
        <time>2009-03-19T11:32:33Z</time>
      </trkpt>
      <trkpt lat="43.81947" lon="3.57472">
        <ele>559.905</ele>
        <time>2009-03-19T11:32:35Z</time>
      </trkpt>
      <trkpt lat="43.81961" lon="3.57468">
        <ele>561.377</ele>
        <time>2009-03-19T11:32:47Z</time>
      </trkpt>
      <trkpt lat="43.81964" lon="3.57466">
        <ele>562.671</ele>
        <time>2009-03-19T11:32:51Z</time>
      </trkpt>
      <trkpt lat="43.81966" lon="3.57463">
        <ele>563.838</ele>
        <time>2009-03-19T11:32:56Z</time>
      </trkpt>
      <trkpt lat="43.8197" lon="3.5746">
        <ele>563.687</ele>
        <time>2009-03-19T11:33:01Z</time>
      </trkpt>
      <trkpt lat="43.8198" lon="3.57448">
        <ele>564.791</ele>
        <time>2009-03-19T11:33:12Z</time>
      </trkpt>
      <trkpt lat="43.81987" lon="3.57447">
        <ele>565.222</ele>
        <time>2009-03-19T11:33:19Z</time>
      </trkpt>
      <trkpt lat="43.81994" lon="3.57444">
        <ele>564.663</ele>
        <time>2009-03-19T11:33:24Z</time>
      </trkpt>
      <trkpt lat="43.82003" lon="3.57436">
        <ele>566.208</ele>
        <time>2009-03-19T11:33:34Z</time>
      </trkpt>
      <trkpt lat="43.82013" lon="3.57432">
        <ele>567.434</ele>
        <time>2009-03-19T11:33:45Z</time>
      </trkpt>
      <trkpt lat="43.82018" lon="3.57432">
        <ele>569.393</ele>
        <time>2009-03-19T11:33:50Z</time>
      </trkpt>
      <trkpt lat="43.8202" lon="3.57432">
        <ele>570.054</ele>
        <time>2009-03-19T11:33:52Z</time>
      </trkpt>
      <trkpt lat="43.82023" lon="3.57432">
        <ele>570.117</ele>
        <time>2009-03-19T11:33:55Z</time>
      </trkpt>
      <trkpt lat="43.8203" lon="3.57426">
        <ele>571.741</ele>
        <time>2009-03-19T11:34:06Z</time>
      </trkpt>
      <trkpt lat="43.82031" lon="3.57424">
        <ele>571.802</ele>
        <time>2009-03-19T11:34:09Z</time>
      </trkpt>
      <trkpt lat="43.82038" lon="3.5742">
        <ele>574.845</ele>
        <time>2009-03-19T11:34:19Z</time>
      </trkpt>
      <trkpt lat="43.82038" lon="3.57421">
        <ele>574.176</ele>
        <time>2009-03-19T11:34:20Z</time>
      </trkpt>
      <trkpt lat="43.82043" lon="3.57425">
        <ele>577.467</ele>
        <time>2009-03-19T11:34:33Z</time>
      </trkpt>
      <trkpt lat="43.82045" lon="3.57428">
        <ele>577.655</ele>
        <time>2009-03-19T11:34:36Z</time>
      </trkpt>
      <trkpt lat="43.82048" lon="3.57432">
        <ele>580.405</ele>
        <time>2009-03-19T11:34:41Z</time>
      </trkpt>
      <trkpt lat="43.82048" lon="3.57433">
        <ele>580.405</ele>
        <time>2009-03-19T11:34:42Z</time>
      </trkpt>
      <trkpt lat="43.8206" lon="3.57441">
        <ele>580.884</ele>
        <time>2009-03-19T11:34:56Z</time>
      </trkpt>
      <trkpt lat="43.82062" lon="3.57443">
        <ele>580.816</ele>
        <time>2009-03-19T11:34:58Z</time>
      </trkpt>
      <trkpt lat="43.82077" lon="3.57449">
        <ele>582.215</ele>
        <time>2009-03-19T11:35:11Z</time>
      </trkpt>
      <trkpt lat="43.82088" lon="3.57461">
        <ele>583.834</ele>
        <time>2009-03-19T11:35:24Z</time>
      </trkpt>
      <trkpt lat="43.82092" lon="3.57465">
        <ele>584.851</ele>
        <time>2009-03-19T11:35:29Z</time>
      </trkpt>
      <trkpt lat="43.82101" lon="3.57475">
        <ele>587.365</ele>
        <time>2009-03-19T11:35:41Z</time>
      </trkpt>
      <trkpt lat="43.82106" lon="3.57476">
        <ele>589.173</ele>
        <time>2009-03-19T11:35:48Z</time>
      </trkpt>
      <trkpt lat="43.82102" lon="3.57466">
        <ele>589.381</ele>
        <time>2009-03-19T11:35:57Z</time>
      </trkpt>
      <trkpt lat="43.82101" lon="3.57461">
        <ele>589.903</ele>
        <time>2009-03-19T11:36:00Z</time>
      </trkpt>
      <trkpt lat="43.82099" lon="3.57454">
        <ele>590.312</ele>
        <time>2009-03-19T11:36:06Z</time>
      </trkpt>
      <trkpt lat="43.82103" lon="3.57455">
        <ele>593.361</ele>
        <time>2009-03-19T11:36:14Z</time>
      </trkpt>
      <trkpt lat="43.82104" lon="3.57456">
        <ele>592.734</ele>
        <time>2009-03-19T11:36:15Z</time>
      </trkpt>
      <trkpt lat="43.82107" lon="3.57462">
        <ele>594.775</ele>
        <time>2009-03-19T11:36:20Z</time>
      </trkpt>
      <trkpt lat="43.82111" lon="3.57467">
        <ele>595.891</ele>
        <time>2009-03-19T11:36:24Z</time>
      </trkpt>
      <trkpt lat="43.82123" lon="3.57476">
        <ele>598.774</ele>
        <time>2009-03-19T11:36:36Z</time>
      </trkpt>
      <trkpt lat="43.82124" lon="3.57477">
        <ele>598.682</ele>
        <time>2009-03-19T11:36:38Z</time>
      </trkpt>
      <trkpt lat="43.82125" lon="3.57477">
        <ele>599.403</ele>
        <time>2009-03-19T11:36:40Z</time>
      </trkpt>
      <trkpt lat="43.8213" lon="3.57482">
        <ele>599.644</ele>
        <time>2009-03-19T11:36:46Z</time>
      </trkpt>
      <trkpt lat="43.82138" lon="3.57499">
        <ele>600.219</ele>
        <time>2009-03-19T11:36:59Z</time>
      </trkpt>
      <trkpt lat="43.82149" lon="3.57514">
        <ele>601.124</ele>
        <time>2009-03-19T11:37:15Z</time>
      </trkpt>
      <trkpt lat="43.82151" lon="3.57513">
        <ele>601.958</ele>
        <time>2009-03-19T11:37:18Z</time>
      </trkpt>
      <trkpt lat="43.82147" lon="3.57494">
        <ele>604.617</ele>
        <time>2009-03-19T11:37:30Z</time>
      </trkpt>
      <trkpt lat="43.82146" lon="3.57488">
        <ele>605.859</ele>
        <time>2009-03-19T11:37:34Z</time>
      </trkpt>
      <trkpt lat="43.82146" lon="3.57481">
        <ele>607.717</ele>
        <time>2009-03-19T11:37:40Z</time>
      </trkpt>
      <trkpt lat="43.82143" lon="3.57469">
        <ele>607.696</ele>
        <time>2009-03-19T11:37:50Z</time>
      </trkpt>
      <trkpt lat="43.82148" lon="3.57474">
        <ele>608.875</ele>
        <time>2009-03-19T11:37:59Z</time>
      </trkpt>
      <trkpt lat="43.82155" lon="3.57482">
        <ele>610.998</ele>
        <time>2009-03-19T11:38:10Z</time>
      </trkpt>
      <trkpt lat="43.82158" lon="3.57487">
        <ele>612.353</ele>
        <time>2009-03-19T11:38:17Z</time>
      </trkpt>
      <trkpt lat="43.82162" lon="3.57482">
        <ele>613.463</ele>
        <time>2009-03-19T11:38:26Z</time>
      </trkpt>
      <trkpt lat="43.8216" lon="3.57472">
        <ele>615.043</ele>
        <time>2009-03-19T11:38:36Z</time>
      </trkpt>
      <trkpt lat="43.8216" lon="3.5746">
        <ele>616.213</ele>
        <time>2009-03-19T11:38:47Z</time>
      </trkpt>
      <trkpt lat="43.82157" lon="3.57461">
        <ele>616.067</ele>
        <time>2009-03-19T11:38:56Z</time>
      </trkpt>
      <trkpt lat="43.82155" lon="3.5746">
        <ele>615.815</ele>
        <time>2009-03-19T11:39:18Z</time>
      </trkpt>
      <trkpt lat="43.82156" lon="3.57447">
        <ele>618.044</ele>
        <time>2009-03-19T11:39:40Z</time>
      </trkpt>
      <trkpt lat="43.8216" lon="3.5745">
        <ele>619.948</ele>
        <time>2009-03-19T11:39:46Z</time>
      </trkpt>
      <trkpt lat="43.82162" lon="3.57451">
        <ele>620.42</ele>
        <time>2009-03-19T11:39:48Z</time>
      </trkpt>
      <trkpt lat="43.82165" lon="3.57457">
        <ele>621.567</ele>
        <time>2009-03-19T11:39:53Z</time>
      </trkpt>
      <trkpt lat="43.82168" lon="3.57459">
        <ele>621.591</ele>
        <time>2009-03-19T11:39:58Z</time>
      </trkpt>
      <trkpt lat="43.82167" lon="3.57453">
        <ele>622.743</ele>
        <time>2009-03-19T11:40:02Z</time>
      </trkpt>
      <trkpt lat="43.82165" lon="3.57441">
        <ele>623.776</ele>
        <time>2009-03-19T11:40:11Z</time>
      </trkpt>
      <trkpt lat="43.82163" lon="3.57431">
        <ele>626.113</ele>
        <time>2009-03-19T11:40:20Z</time>
      </trkpt>
      <trkpt lat="43.82156" lon="3.57425">
        <ele>628.979</ele>
        <time>2009-03-19T11:40:31Z</time>
      </trkpt>
      <trkpt lat="43.82157" lon="3.5742">
        <ele>630.828</ele>
        <time>2009-03-19T11:40:37Z</time>
      </trkpt>
      <trkpt lat="43.82163" lon="3.57422">
        <ele>631.446</ele>
        <time>2009-03-19T11:40:44Z</time>
      </trkpt>
      <trkpt lat="43.82168" lon="3.57416">
        <ele>634.059</ele>
        <time>2009-03-19T11:40:55Z</time>
      </trkpt>
      <trkpt lat="43.82166" lon="3.5741">
        <ele>633.644</ele>
        <time>2009-03-19T11:41:07Z</time>
      </trkpt>
      <trkpt lat="43.82165" lon="3.5741">
        <ele>633.262</ele>
        <time>2009-03-19T11:41:13Z</time>
      </trkpt>
      <trkpt lat="43.82164" lon="3.57407">
        <ele>635.239</ele>
        <time>2009-03-19T11:41:26Z</time>
      </trkpt>
      <trkpt lat="43.82161" lon="3.57401">
        <ele>635.734</ele>
        <time>2009-03-19T11:41:32Z</time>
      </trkpt>
      <trkpt lat="43.82158" lon="3.57388">
        <ele>638.215</ele>
        <time>2009-03-19T11:41:44Z</time>
      </trkpt>
      <trkpt lat="43.82159" lon="3.57386">
        <ele>638.197</ele>
        <time>2009-03-19T11:41:46Z</time>
      </trkpt>
      <trkpt lat="43.82167" lon="3.57381">
        <ele>639.488</ele>
        <time>2009-03-19T11:41:56Z</time>
      </trkpt>
      <trkpt lat="43.82171" lon="3.57378">
        <ele>642.117</ele>
        <time>2009-03-19T11:42:07Z</time>
      </trkpt>
      <trkpt lat="43.82175" lon="3.57373">
        <ele>643.432</ele>
        <time>2009-03-19T11:42:17Z</time>
      </trkpt>
      <trkpt lat="43.82179" lon="3.57367">
        <ele>645.708</ele>
        <time>2009-03-19T11:42:27Z</time>
      </trkpt>
      <trkpt lat="43.82181" lon="3.57363">
        <ele>646.704</ele>
        <time>2009-03-19T11:42:32Z</time>
      </trkpt>
      <trkpt lat="43.82185" lon="3.57356">
        <ele>647.457</ele>
        <time>2009-03-19T11:42:47Z</time>
      </trkpt>
      <trkpt lat="43.82189" lon="3.57348">
        <ele>649.941</ele>
        <time>2009-03-19T11:42:59Z</time>
      </trkpt>
      <trkpt lat="43.82195" lon="3.57353">
        <ele>653.059</ele>
        <time>2009-03-19T11:43:11Z</time>
      </trkpt>
      <trkpt lat="43.82198" lon="3.57356">
        <ele>653.765</ele>
        <time>2009-03-19T11:43:15Z</time>
      </trkpt>
      <trkpt lat="43.82201" lon="3.5736">
        <ele>654.251</ele>
        <time>2009-03-19T11:43:24Z</time>
      </trkpt>
      <trkpt lat="43.82206" lon="3.57368">
        <ele>655.378</ele>
        <time>2009-03-19T11:43:37Z</time>
      </trkpt>
      <trkpt lat="43.82206" lon="3.57369">
        <ele>655.57</ele>
        <time>2009-03-19T11:43:38Z</time>
      </trkpt>
      <trkpt lat="43.82213" lon="3.57373">
        <ele>656.827</ele>
        <time>2009-03-19T11:43:49Z</time>
      </trkpt>
      <trkpt lat="43.82218" lon="3.57384">
        <ele>657.731</ele>
        <time>2009-03-19T11:44:01Z</time>
      </trkpt>
      <trkpt lat="43.8222" lon="3.57388">
        <ele>658.1</ele>
        <time>2009-03-19T11:44:10Z</time>
      </trkpt>
      <trkpt lat="43.82223" lon="3.57401">
        <ele>658.471</ele>
        <time>2009-03-19T11:44:19Z</time>
      </trkpt>
      <trkpt lat="43.82224" lon="3.57405">
        <ele>659.516</ele>
        <time>2009-03-19T11:44:24Z</time>
      </trkpt>
      <trkpt lat="43.8222" lon="3.57417">
        <ele>663.392</ele>
        <time>2009-03-19T11:44:34Z</time>
      </trkpt>
      <trkpt lat="43.82219" lon="3.57418">
        <ele>663.43</ele>
        <time>2009-03-19T11:44:35Z</time>
      </trkpt>
      <trkpt lat="43.82212" lon="3.5742">
        <ele>665.668</ele>
        <time>2009-03-19T11:44:47Z</time>
      </trkpt>
      <trkpt lat="43.82205" lon="3.57419">
        <ele>667.002</ele>
        <time>2009-03-19T11:45:03Z</time>
      </trkpt>
      <trkpt lat="43.82205" lon="3.57424">
        <ele>667.629</ele>
        <time>2009-03-19T11:45:28Z</time>
      </trkpt>
      <trkpt lat="43.82212" lon="3.57417">
        <ele>665.731</ele>
        <time>2009-03-19T11:45:55Z</time>
      </trkpt>
      <trkpt lat="43.82209" lon="3.57418">
        <ele>668.1</ele>
        <time>2009-03-19T11:46:30Z</time>
      </trkpt>
      <trkpt lat="43.82215" lon="3.57417">
        <ele>664.902</ele>
        <time>2009-03-19T11:46:42Z</time>
      </trkpt>
      <trkpt lat="43.82218" lon="3.5742">
        <ele>664.296</ele>
        <time>2009-03-19T11:46:55Z</time>
      </trkpt>
      <trkpt lat="43.82222" lon="3.57414">
        <ele>663.526</ele>
        <time>2009-03-19T11:47:07Z</time>
      </trkpt>
      <trkpt lat="43.82221" lon="3.57415">
        <ele>661.718</ele>
        <time>2009-03-19T11:47:32Z</time>
      </trkpt>
      <trkpt lat="43.82221" lon="3.57418">
        <ele>662.878</ele>
        <time>2009-03-19T11:48:02Z</time>
      </trkpt>
      <trkpt lat="43.8222" lon="3.57417">
        <ele>663.207</ele>
        <time>2009-03-19T11:48:22Z</time>
      </trkpt>
      <trkpt lat="43.82222" lon="3.57415">
        <ele>663.036</ele>
        <time>2009-03-19T11:48:57Z</time>
      </trkpt>
      <trkpt lat="43.82225" lon="3.57415">
        <ele>662.321</ele>
        <time>2009-03-19T11:49:00Z</time>
      </trkpt>
      <trkpt lat="43.82227" lon="3.57415">
        <ele>662.136</ele>
        <time>2009-03-19T11:49:02Z</time>
      </trkpt>
      <trkpt lat="43.8223" lon="3.57429">
        <ele>663.087</ele>
        <time>2009-03-19T11:49:13Z</time>
      </trkpt>
      <trkpt lat="43.8223" lon="3.57431">
        <ele>661.848</ele>
        <time>2009-03-19T11:49:32Z</time>
      </trkpt>
      <trkpt lat="43.8223" lon="3.57433">
        <ele>662.69</ele>
        <time>2009-03-19T11:49:43Z</time>
      </trkpt>
      <trkpt lat="43.82231" lon="3.57435">
        <ele>662.778</ele>
        <time>2009-03-19T11:50:04Z</time>
      </trkpt>
      <trkpt lat="43.82232" lon="3.57434">
        <ele>663.668</ele>
        <time>2009-03-19T11:50:15Z</time>
      </trkpt>
      <trkpt lat="43.82236" lon="3.57437">
        <ele>663.452</ele>
        <time>2009-03-19T11:50:21Z</time>
      </trkpt>
      <trkpt lat="43.82236" lon="3.57441">
        <ele>663.624</ele>
        <time>2009-03-19T11:50:31Z</time>
      </trkpt>
      <trkpt lat="43.82236" lon="3.57446">
        <ele>664.184</ele>
        <time>2009-03-19T11:50:43Z</time>
      </trkpt>
      <trkpt lat="43.82239" lon="3.57446">
        <ele>664.581</ele>
        <time>2009-03-19T11:50:57Z</time>
      </trkpt>
      <trkpt lat="43.82238" lon="3.57445">
        <ele>664.755</ele>
        <time>2009-03-19T11:51:12Z</time>
      </trkpt>
      <trkpt lat="43.82239" lon="3.57447">
        <ele>664.611</ele>
        <time>2009-03-19T11:51:17Z</time>
      </trkpt>
      <trkpt lat="43.82249" lon="3.57463">
        <ele>665.1</ele>
        <time>2009-03-19T11:51:31Z</time>
      </trkpt>
      <trkpt lat="43.82251" lon="3.57467">
        <ele>665.055</ele>
        <time>2009-03-19T11:51:34Z</time>
      </trkpt>
      <trkpt lat="43.82254" lon="3.57473">
        <ele>664.342</ele>
        <time>2009-03-19T11:51:38Z</time>
      </trkpt>
      <trkpt lat="43.82256" lon="3.57476">
        <ele>664.345</ele>
        <time>2009-03-19T11:51:41Z</time>
      </trkpt>
      <trkpt lat="43.82257" lon="3.57478">
        <ele>664.844</ele>
        <time>2009-03-19T11:51:43Z</time>
      </trkpt>
      <trkpt lat="43.82264" lon="3.57488">
        <ele>664.057</ele>
        <time>2009-03-19T11:51:52Z</time>
      </trkpt>
      <trkpt lat="43.8227" lon="3.57492">
        <ele>663.635</ele>
        <time>2009-03-19T11:52:14Z</time>
      </trkpt>
      <trkpt lat="43.82273" lon="3.57496">
        <ele>663.261</ele>
        <time>2009-03-19T11:52:19Z</time>
      </trkpt>
      <trkpt lat="43.82277" lon="3.57498">
        <ele>663.351</ele>
        <time>2009-03-19T11:52:23Z</time>
      </trkpt>
      <trkpt lat="43.82284" lon="3.57504">
        <ele>662.047</ele>
        <time>2009-03-19T11:52:34Z</time>
      </trkpt>
      <trkpt lat="43.82285" lon="3.57508">
        <ele>662.592</ele>
        <time>2009-03-19T11:52:37Z</time>
      </trkpt>
      <trkpt lat="43.8229" lon="3.57515">
        <ele>662.673</ele>
        <time>2009-03-19T11:52:46Z</time>
      </trkpt>
      <trkpt lat="43.82295" lon="3.57524">
        <ele>662.904</ele>
        <time>2009-03-19T11:52:58Z</time>
      </trkpt>
      <trkpt lat="43.82297" lon="3.57527">
        <ele>662.903</ele>
        <time>2009-03-19T11:53:03Z</time>
      </trkpt>
      <trkpt lat="43.82299" lon="3.57531">
        <ele>663.123</ele>
        <time>2009-03-19T11:53:07Z</time>
      </trkpt>
      <trkpt lat="43.82312" lon="3.57537">
        <ele>663.371</ele>
        <time>2009-03-19T11:53:21Z</time>
      </trkpt>
      <trkpt lat="43.82319" lon="3.57541">
        <ele>663.213</ele>
        <time>2009-03-19T11:53:30Z</time>
      </trkpt>
      <trkpt lat="43.82321" lon="3.57548">
        <ele>664.22</ele>
        <time>2009-03-19T11:53:36Z</time>
      </trkpt>
      <trkpt lat="43.82331" lon="3.57557">
        <ele>666.405</ele>
        <time>2009-03-19T11:53:48Z</time>
      </trkpt>
      <trkpt lat="43.82337" lon="3.57569">
        <ele>667.172</ele>
        <time>2009-03-19T11:53:57Z</time>
      </trkpt>
      <trkpt lat="43.8234" lon="3.57573">
        <ele>667.709</ele>
        <time>2009-03-19T11:54:02Z</time>
      </trkpt>
      <trkpt lat="43.82347" lon="3.57585">
        <ele>669.51</ele>
        <time>2009-03-19T11:54:17Z</time>
      </trkpt>
      <trkpt lat="43.82348" lon="3.57588">
        <ele>669.8</ele>
        <time>2009-03-19T11:54:21Z</time>
      </trkpt>
      <trkpt lat="43.8235" lon="3.5759">
        <ele>671.625</ele>
        <time>2009-03-19T11:54:23Z</time>
      </trkpt>
      <trkpt lat="43.82358" lon="3.57593">
        <ele>671.434</ele>
        <time>2009-03-19T11:54:34Z</time>
      </trkpt>
      <trkpt lat="43.82366" lon="3.57597">
        <ele>673.733</ele>
        <time>2009-03-19T11:54:45Z</time>
      </trkpt>
      <trkpt lat="43.82373" lon="3.57599">
        <ele>673.548</ele>
        <time>2009-03-19T11:55:00Z</time>
      </trkpt>
      <trkpt lat="43.82374" lon="3.57598">
        <ele>673.588</ele>
        <time>2009-03-19T11:55:21Z</time>
      </trkpt>
      <trkpt lat="43.82374" lon="3.57598">
        <ele>673.208</ele>
        <time>2009-03-19T11:55:43Z</time>
      </trkpt>
      <trkpt lat="43.82374" lon="3.57599">
        <ele>674.403</ele>
        <time>2009-03-19T11:55:50Z</time>
      </trkpt>
      <trkpt lat="43.82386" lon="3.57606">
        <ele>674.758</ele>
        <time>2009-03-19T11:56:03Z</time>
      </trkpt>
      <trkpt lat="43.82391" lon="3.5761">
        <ele>674.764</ele>
        <time>2009-03-19T11:56:08Z</time>
      </trkpt>
      <trkpt lat="43.82397" lon="3.57616">
        <ele>674.872</ele>
        <time>2009-03-19T11:56:19Z</time>
      </trkpt>
      <trkpt lat="43.82399" lon="3.57623">
        <ele>674.767</ele>
        <time>2009-03-19T11:56:24Z</time>
      </trkpt>
      <trkpt lat="43.82403" lon="3.57633">
        <ele>676.526</ele>
        <time>2009-03-19T11:56:37Z</time>
      </trkpt>
      <trkpt lat="43.82402" lon="3.57637">
        <ele>679.984</ele>
        <time>2009-03-19T11:56:47Z</time>
      </trkpt>
      <trkpt lat="43.82401" lon="3.5764">
        <ele>678.034</ele>
        <time>2009-03-19T11:56:58Z</time>
      </trkpt>
      <trkpt lat="43.82401" lon="3.57642">
        <ele>678.308</ele>
        <time>2009-03-19T11:57:02Z</time>
      </trkpt>
      <trkpt lat="43.82405" lon="3.57648">
        <ele>679.439</ele>
        <time>2009-03-19T11:57:15Z</time>
      </trkpt>
      <trkpt lat="43.82403" lon="3.57652">
        <ele>680.168</ele>
        <time>2009-03-19T11:57:21Z</time>
      </trkpt>
      <trkpt lat="43.824" lon="3.57658">
        <ele>680.489</ele>
        <time>2009-03-19T11:57:28Z</time>
      </trkpt>
      <trkpt lat="43.824" lon="3.57664">
        <ele>680.354</ele>
        <time>2009-03-19T11:57:32Z</time>
      </trkpt>
      <trkpt lat="43.82402" lon="3.57667">
        <ele>680.567</ele>
        <time>2009-03-19T11:57:34Z</time>
      </trkpt>
      <trkpt lat="43.82405" lon="3.57676">
        <ele>682.882</ele>
        <time>2009-03-19T11:57:45Z</time>
      </trkpt>
      <trkpt lat="43.82405" lon="3.57677">
        <ele>682.867</ele>
        <time>2009-03-19T11:57:46Z</time>
      </trkpt>
      <trkpt lat="43.8241" lon="3.57689">
        <ele>684.052</ele>
        <time>2009-03-19T11:58:00Z</time>
      </trkpt>
      <trkpt lat="43.82411" lon="3.57695">
        <ele>683.837</ele>
        <time>2009-03-19T11:58:19Z</time>
      </trkpt>
      <trkpt lat="43.82414" lon="3.57707">
        <ele>686.972</ele>
        <time>2009-03-19T11:58:32Z</time>
      </trkpt>
      <trkpt lat="43.82416" lon="3.57709">
        <ele>687.823</ele>
        <time>2009-03-19T11:58:38Z</time>
      </trkpt>
      <trkpt lat="43.82414" lon="3.57708">
        <ele>687.318</ele>
        <time>2009-03-19T11:59:17Z</time>
      </trkpt>
      <trkpt lat="43.82414" lon="3.57717">
        <ele>689.15</ele>
        <time>2009-03-19T11:59:29Z</time>
      </trkpt>
      <trkpt lat="43.8241" lon="3.57725">
        <ele>691.112</ele>
        <time>2009-03-19T11:59:41Z</time>
      </trkpt>
      <trkpt lat="43.82406" lon="3.5773">
        <ele>691.733</ele>
        <time>2009-03-19T11:59:48Z</time>
      </trkpt>
      <trkpt lat="43.82403" lon="3.57736">
        <ele>693.706</ele>
        <time>2009-03-19T11:59:55Z</time>
      </trkpt>
      <trkpt lat="43.82403" lon="3.57737">
        <ele>694.588</ele>
        <time>2009-03-19T12:00:03Z</time>
      </trkpt>
      <trkpt lat="43.82399" lon="3.57743">
        <ele>695.729</ele>
        <time>2009-03-19T12:00:15Z</time>
      </trkpt>
      <trkpt lat="43.824" lon="3.57746">
        <ele>697.121</ele>
        <time>2009-03-19T12:00:35Z</time>
      </trkpt>
      <trkpt lat="43.82402" lon="3.57747">
        <ele>696.13</ele>
        <time>2009-03-19T12:00:43Z</time>
      </trkpt>
      <trkpt lat="43.82404" lon="3.5775">
        <ele>696.862</ele>
        <time>2009-03-19T12:00:47Z</time>
      </trkpt>
      <trkpt lat="43.82406" lon="3.57754">
        <ele>697.163</ele>
        <time>2009-03-19T12:00:52Z</time>
      </trkpt>
      <trkpt lat="43.8241" lon="3.57758">
        <ele>697.133</ele>
        <time>2009-03-19T12:01:00Z</time>
      </trkpt>
      <trkpt lat="43.82418" lon="3.57767">
        <ele>696.663</ele>
        <time>2009-03-19T12:01:14Z</time>
      </trkpt>
      <trkpt lat="43.8242" lon="3.57764">
        <ele>696.035</ele>
        <time>2009-03-19T12:01:26Z</time>
      </trkpt>
      <trkpt lat="43.82425" lon="3.57759">
        <ele>696.798</ele>
        <time>2009-03-19T12:01:35Z</time>
      </trkpt>
      <trkpt lat="43.82426" lon="3.5776">
        <ele>696.119</ele>
        <time>2009-03-19T12:01:41Z</time>
      </trkpt>
      <trkpt lat="43.82434" lon="3.57764">
        <ele>694.996</ele>
        <time>2009-03-19T12:01:54Z</time>
      </trkpt>
      <trkpt lat="43.82438" lon="3.5777">
        <ele>696.254</ele>
        <time>2009-03-19T12:02:08Z</time>
      </trkpt>
      <trkpt lat="43.82438" lon="3.57777">
        <ele>695.634</ele>
        <time>2009-03-19T12:02:23Z</time>
      </trkpt>
      <trkpt lat="43.82438" lon="3.57784">
        <ele>696.429</ele>
        <time>2009-03-19T12:02:35Z</time>
      </trkpt>
      <trkpt lat="43.82438" lon="3.5779">
        <ele>695.325</ele>
        <time>2009-03-19T12:02:56Z</time>
      </trkpt>
      <trkpt lat="43.82438" lon="3.57795">
        <ele>695.558</ele>
        <time>2009-03-19T12:03:11Z</time>
      </trkpt>
      <trkpt lat="43.82437" lon="3.57796">
        <ele>695.954</ele>
        <time>2009-03-19T12:03:12Z</time>
      </trkpt>
      <trkpt lat="43.82434" lon="3.57805">
        <ele>696.658</ele>
        <time>2009-03-19T12:03:24Z</time>
      </trkpt>
      <trkpt lat="43.82435" lon="3.57806">
        <ele>696.591</ele>
        <time>2009-03-19T12:03:28Z</time>
      </trkpt>
      <trkpt lat="43.82441" lon="3.57812">
        <ele>695.75</ele>
        <time>2009-03-19T12:03:38Z</time>
      </trkpt>
      <trkpt lat="43.82446" lon="3.57819">
        <ele>697.265</ele>
        <time>2009-03-19T12:03:51Z</time>
      </trkpt>
      <trkpt lat="43.82446" lon="3.57822">
        <ele>696.636</ele>
        <time>2009-03-19T12:03:58Z</time>
      </trkpt>
      <trkpt lat="43.82444" lon="3.57824">
        <ele>697.722</ele>
        <time>2009-03-19T12:04:01Z</time>
      </trkpt>
      <trkpt lat="43.82442" lon="3.57823">
        <ele>697.096</ele>
        <time>2009-03-19T12:04:06Z</time>
      </trkpt>
      <trkpt lat="43.82438" lon="3.57824">
        <ele>697.018</ele>
        <time>2009-03-19T12:04:18Z</time>
      </trkpt>
      <trkpt lat="43.82436" lon="3.57825">
        <ele>697.405</ele>
        <time>2009-03-19T12:04:24Z</time>
      </trkpt>
      <trkpt lat="43.82441" lon="3.57824">
        <ele>697.129</ele>
        <time>2009-03-19T12:04:32Z</time>
      </trkpt>
      <trkpt lat="43.82444" lon="3.57823">
        <ele>696.875</ele>
        <time>2009-03-19T12:04:38Z</time>
      </trkpt>
      <trkpt lat="43.82451" lon="3.57822">
        <ele>696.05</ele>
        <time>2009-03-19T12:04:48Z</time>
      </trkpt>
      <trkpt lat="43.82457" lon="3.5782">
        <ele>694.841</ele>
        <time>2009-03-19T12:05:01Z</time>
      </trkpt>
      <trkpt lat="43.82458" lon="3.57824">
        <ele>694.982</ele>
        <time>2009-03-19T12:05:07Z</time>
      </trkpt>
      <trkpt lat="43.8246" lon="3.57833">
        <ele>696.808</ele>
        <time>2009-03-19T12:05:19Z</time>
      </trkpt>
      <trkpt lat="43.82459" lon="3.57834">
        <ele>696.418</ele>
        <time>2009-03-19T12:05:21Z</time>
      </trkpt>
      <trkpt lat="43.82453" lon="3.5784">
        <ele>697.464</ele>
        <time>2009-03-19T12:05:34Z</time>
      </trkpt>
      <trkpt lat="43.8245" lon="3.57844">
        <ele>698.059</ele>
        <time>2009-03-19T12:05:39Z</time>
      </trkpt>
      <trkpt lat="43.8245" lon="3.57848">
        <ele>698.137</ele>
        <time>2009-03-19T12:05:42Z</time>
      </trkpt>
      <trkpt lat="43.82447" lon="3.57858">
        <ele>698.78</ele>
        <time>2009-03-19T12:05:53Z</time>
      </trkpt>
      <trkpt lat="43.82446" lon="3.57859">
        <ele>698.483</ele>
        <time>2009-03-19T12:05:54Z</time>
      </trkpt>
      <trkpt lat="43.82441" lon="3.57865">
        <ele>700.085</ele>
        <time>2009-03-19T12:06:04Z</time>
      </trkpt>
      <trkpt lat="43.82447" lon="3.57874">
        <ele>700.035</ele>
        <time>2009-03-19T12:06:17Z</time>
      </trkpt>
      <trkpt lat="43.8245" lon="3.57882">
        <ele>701.347</ele>
        <time>2009-03-19T12:06:31Z</time>
      </trkpt>
      <trkpt lat="43.82452" lon="3.57887">
        <ele>701.236</ele>
        <time>2009-03-19T12:06:37Z</time>
      </trkpt>
      <trkpt lat="43.82452" lon="3.57895">
        <ele>701.218</ele>
        <time>2009-03-19T12:06:52Z</time>
      </trkpt>
      <trkpt lat="43.82454" lon="3.5791">
        <ele>701.372</ele>
        <time>2009-03-19T12:07:03Z</time>
      </trkpt>
      <trkpt lat="43.82457" lon="3.57919">
        <ele>701.5</ele>
        <time>2009-03-19T12:07:10Z</time>
      </trkpt>
      <trkpt lat="43.8246" lon="3.57923">
        <ele>702.683</ele>
        <time>2009-03-19T12:07:15Z</time>
      </trkpt>
      <trkpt lat="43.82466" lon="3.57927">
        <ele>701.521</ele>
        <time>2009-03-19T12:07:22Z</time>
      </trkpt>
      <trkpt lat="43.82468" lon="3.57931">
        <ele>702.773</ele>
        <time>2009-03-19T12:07:26Z</time>
      </trkpt>
      <trkpt lat="43.82476" lon="3.57945">
        <ele>705.551</ele>
        <time>2009-03-19T12:07:40Z</time>
      </trkpt>
      <trkpt lat="43.82477" lon="3.57957">
        <ele>707.984</ele>
        <time>2009-03-19T12:07:53Z</time>
      </trkpt>
      <trkpt lat="43.8248" lon="3.57969">
        <ele>710.919</ele>
        <time>2009-03-19T12:08:05Z</time>
      </trkpt>
      <trkpt lat="43.82481" lon="3.57978">
        <ele>712.277</ele>
        <time>2009-03-19T12:08:15Z</time>
      </trkpt>
      <trkpt lat="43.82481" lon="3.5799">
        <ele>712.75</ele>
        <time>2009-03-19T12:08:27Z</time>
      </trkpt>
      <trkpt lat="43.82479" lon="3.58003">
        <ele>714.225</ele>
        <time>2009-03-19T12:08:41Z</time>
      </trkpt>
      <trkpt lat="43.82482" lon="3.58011">
        <ele>715.355</ele>
        <time>2009-03-19T12:08:55Z</time>
      </trkpt>
      <trkpt lat="43.82484" lon="3.58016">
        <ele>715.997</ele>
        <time>2009-03-19T12:09:05Z</time>
      </trkpt>
      <trkpt lat="43.82486" lon="3.58022">
        <ele>718.845</ele>
        <time>2009-03-19T12:09:10Z</time>
      </trkpt>
      <trkpt lat="43.82487" lon="3.58029">
        <ele>720.373</ele>
        <time>2009-03-19T12:09:19Z</time>
      </trkpt>
      <trkpt lat="43.82487" lon="3.58034">
        <ele>720.666</ele>
        <time>2009-03-19T12:09:34Z</time>
      </trkpt>
      <trkpt lat="43.82493" lon="3.5804">
        <ele>721.283</ele>
        <time>2009-03-19T12:09:46Z</time>
      </trkpt>
      <trkpt lat="43.82493" lon="3.58053">
        <ele>724.504</ele>
        <time>2009-03-19T12:09:58Z</time>
      </trkpt>
      <trkpt lat="43.82495" lon="3.58065">
        <ele>725.936</ele>
        <time>2009-03-19T12:10:10Z</time>
      </trkpt>
      <trkpt lat="43.82495" lon="3.58078">
        <ele>728.402</ele>
        <time>2009-03-19T12:10:22Z</time>
      </trkpt>
      <trkpt lat="43.82495" lon="3.58082">
        <ele>728.489</ele>
        <time>2009-03-19T12:10:38Z</time>
      </trkpt>
      <trkpt lat="43.82496" lon="3.58084">
        <ele>728.837</ele>
        <time>2009-03-19T12:10:52Z</time>
      </trkpt>
      <trkpt lat="43.82496" lon="3.58086">
        <ele>730.194</ele>
        <time>2009-03-19T12:11:14Z</time>
      </trkpt>
      <trkpt lat="43.825" lon="3.5809">
        <ele>730.967</ele>
        <time>2009-03-19T12:11:20Z</time>
      </trkpt>
      <trkpt lat="43.82504" lon="3.58098">
        <ele>732.602</ele>
        <time>2009-03-19T12:11:29Z</time>
      </trkpt>
      <trkpt lat="43.82505" lon="3.58107">
        <ele>733.698</ele>
        <time>2009-03-19T12:11:41Z</time>
      </trkpt>
      <trkpt lat="43.82506" lon="3.58112">
        <ele>733.919</ele>
        <time>2009-03-19T12:12:00Z</time>
      </trkpt>
      <trkpt lat="43.82507" lon="3.58118">
        <ele>737.761</ele>
        <time>2009-03-19T12:12:07Z</time>
      </trkpt>
      <trkpt lat="43.82506" lon="3.58124">
        <ele>737.393</ele>
        <time>2009-03-19T12:12:19Z</time>
      </trkpt>
      <trkpt lat="43.82504" lon="3.58125">
        <ele>738.216</ele>
        <time>2009-03-19T12:12:35Z</time>
      </trkpt>
      <trkpt lat="43.82505" lon="3.58129">
        <ele>738.855</ele>
        <time>2009-03-19T12:12:47Z</time>
      </trkpt>
      <trkpt lat="43.82507" lon="3.58133">
        <ele>740.203</ele>
        <time>2009-03-19T12:13:08Z</time>
      </trkpt>
      <trkpt lat="43.82511" lon="3.58139">
        <ele>742.201</ele>
        <time>2009-03-19T12:13:21Z</time>
      </trkpt>
      <trkpt lat="43.8251" lon="3.58142">
        <ele>743.041</ele>
        <time>2009-03-19T12:13:40Z</time>
      </trkpt>
      <trkpt lat="43.8251" lon="3.58142">
        <ele>743.041</ele>
        <time>2009-03-19T12:13:41Z</time>
      </trkpt>
      <trkpt lat="43.82513" lon="3.58148">
        <ele>743.586</ele>
        <time>2009-03-19T12:13:58Z</time>
      </trkpt>
      <trkpt lat="43.82518" lon="3.58143">
        <ele>744.897</ele>
        <time>2009-03-19T12:14:13Z</time>
      </trkpt>
      <trkpt lat="43.82522" lon="3.58145">
        <ele>746.201</ele>
        <time>2009-03-19T12:14:21Z</time>
      </trkpt>
      <trkpt lat="43.82527" lon="3.58149">
        <ele>746.819</ele>
        <time>2009-03-19T12:14:33Z</time>
      </trkpt>
      <trkpt lat="43.82532" lon="3.58149">
        <ele>749.201</ele>
        <time>2009-03-19T12:14:38Z</time>
      </trkpt>
      <trkpt lat="43.82533" lon="3.58148">
        <ele>749.818</ele>
        <time>2009-03-19T12:14:41Z</time>
      </trkpt>
      <trkpt lat="43.82537" lon="3.58149">
        <ele>750.345</ele>
        <time>2009-03-19T12:14:56Z</time>
      </trkpt>
      <trkpt lat="43.82535" lon="3.58146">
        <ele>750.06</ele>
        <time>2009-03-19T12:15:21Z</time>
      </trkpt>
      <trkpt lat="43.82536" lon="3.58146">
        <ele>749.964</ele>
        <time>2009-03-19T12:15:37Z</time>
      </trkpt>
      <trkpt lat="43.82537" lon="3.58146">
        <ele>747.991</ele>
        <time>2009-03-19T12:15:58Z</time>
      </trkpt>
      <trkpt lat="43.82537" lon="3.58146">
        <ele>753.459</ele>
        <time>2009-03-19T12:15:59Z</time>
      </trkpt>
      <trkpt lat="43.82537" lon="3.58146">
        <ele>750.361</ele>
        <time>2009-03-19T12:16:00Z</time>
      </trkpt>
      <trkpt lat="43.82536" lon="3.58147">
        <ele>750.566</ele>
        <time>2009-03-19T12:16:24Z</time>
      </trkpt>
      <trkpt lat="43.82536" lon="3.58148">
        <ele>750.414</ele>
        <time>2009-03-19T12:16:47Z</time>
      </trkpt>
      <trkpt lat="43.82535" lon="3.5815">
        <ele>749.25</ele>
        <time>2009-03-19T12:18:50Z</time>
      </trkpt>
      <trkpt lat="43.82536" lon="3.58148">
        <ele>750.704</ele>
        <time>2009-03-19T12:19:27Z</time>
      </trkpt>
      <trkpt lat="43.82537" lon="3.58148">
        <ele>750.66</ele>
        <time>2009-03-19T12:20:03Z</time>
      </trkpt>
      <trkpt lat="43.8254" lon="3.58151">
        <ele>750.018</ele>
        <time>2009-03-19T12:20:18Z</time>
      </trkpt>
      <trkpt lat="43.82541" lon="3.58154">
        <ele>750.084</ele>
        <time>2009-03-19T12:20:39Z</time>
      </trkpt>
      <trkpt lat="43.82544" lon="3.58154">
        <ele>750.973</ele>
        <time>2009-03-19T12:21:00Z</time>
      </trkpt>
      <trkpt lat="43.82543" lon="3.58157">
        <ele>752.081</ele>
        <time>2009-03-19T12:21:20Z</time>
      </trkpt>
      <trkpt lat="43.82541" lon="3.58159">
        <ele>752.224</ele>
        <time>2009-03-19T12:21:24Z</time>
      </trkpt>
      <trkpt lat="43.82535" lon="3.5816">
        <ele>751.691</ele>
        <time>2009-03-19T12:21:31Z</time>
      </trkpt>
      <trkpt lat="43.82531" lon="3.58167">
        <ele>753.143</ele>
        <time>2009-03-19T12:21:38Z</time>
      </trkpt>
      <trkpt lat="43.8253" lon="3.58178">
        <ele>755.157</ele>
        <time>2009-03-19T12:21:51Z</time>
      </trkpt>
      <trkpt lat="43.82531" lon="3.58187">
        <ele>757.265</ele>
        <time>2009-03-19T12:22:02Z</time>
      </trkpt>
      <trkpt lat="43.82531" lon="3.58193">
        <ele>758.14</ele>
        <time>2009-03-19T12:22:21Z</time>
      </trkpt>
      <trkpt lat="43.82532" lon="3.58193">
        <ele>758.691</ele>
        <time>2009-03-19T12:22:43Z</time>
      </trkpt>
      <trkpt lat="43.82528" lon="3.58194">
        <ele>759.283</ele>
        <time>2009-03-19T12:23:02Z</time>
      </trkpt>
      <trkpt lat="43.82526" lon="3.58201">
        <ele>762.842</ele>
        <time>2009-03-19T12:23:12Z</time>
      </trkpt>
      <trkpt lat="43.82526" lon="3.58213">
        <ele>764.6</ele>
        <time>2009-03-19T12:23:25Z</time>
      </trkpt>
      <trkpt lat="43.82527" lon="3.5822">
        <ele>766.253</ele>
        <time>2009-03-19T12:23:33Z</time>
      </trkpt>
      <trkpt lat="43.82527" lon="3.5823">
        <ele>765.931</ele>
        <time>2009-03-19T12:23:44Z</time>
      </trkpt>
      <trkpt lat="43.82529" lon="3.58238">
        <ele>769.178</ele>
        <time>2009-03-19T12:23:55Z</time>
      </trkpt>
      <trkpt lat="43.82532" lon="3.58247">
        <ele>769.898</ele>
        <time>2009-03-19T12:24:07Z</time>
      </trkpt>
      <trkpt lat="43.82535" lon="3.58262">
        <ele>769.575</ele>
        <time>2009-03-19T12:24:18Z</time>
      </trkpt>
      <trkpt lat="43.82531" lon="3.58266">
        <ele>770.074</ele>
        <time>2009-03-19T12:24:23Z</time>
      </trkpt>
      <trkpt lat="43.82528" lon="3.5828">
        <ele>770.443</ele>
        <time>2009-03-19T12:24:34Z</time>
      </trkpt>
      <trkpt lat="43.82528" lon="3.58285">
        <ele>773.721</ele>
        <time>2009-03-19T12:24:38Z</time>
      </trkpt>
      <trkpt lat="43.82526" lon="3.58305">
        <ele>772.884</ele>
        <time>2009-03-19T12:24:53Z</time>
      </trkpt>
      <trkpt lat="43.82526" lon="3.58317">
        <ele>775.203</ele>
        <time>2009-03-19T12:25:06Z</time>
      </trkpt>
      <trkpt lat="43.82526" lon="3.58317">
        <ele>774.047</ele>
        <time>2009-03-19T12:25:10Z</time>
      </trkpt>
      <trkpt lat="43.82526" lon="3.58317">
        <ele>778.586</ele>
        <time>2009-03-19T12:25:11Z</time>
      </trkpt>
      <trkpt lat="43.82526" lon="3.58317">
        <ele>776.267</ele>
        <time>2009-03-19T12:25:12Z</time>
      </trkpt>
      <trkpt lat="43.82526" lon="3.58317">
        <ele>775.305</ele>
        <time>2009-03-19T12:25:14Z</time>
      </trkpt>
      <trkpt lat="43.82526" lon="3.58317">
        <ele>778.372</ele>
        <time>2009-03-19T12:25:15Z</time>
      </trkpt>
      <trkpt lat="43.82526" lon="3.58317">
        <ele>776.893</ele>
        <time>2009-03-19T12:25:18Z</time>
      </trkpt>
      <trkpt lat="43.82526" lon="3.58316">
        <ele>776.949</ele>
        <time>2009-03-19T12:25:28Z</time>
      </trkpt>
      <trkpt lat="43.82524" lon="3.58318">
        <ele>776.755</ele>
        <time>2009-03-19T12:25:57Z</time>
      </trkpt>
      <trkpt lat="43.82517" lon="3.58318">
        <ele>778.361</ele>
        <time>2009-03-19T12:26:07Z</time>
      </trkpt>
      <trkpt lat="43.82514" lon="3.58316">
        <ele>778.203</ele>
        <time>2009-03-19T12:26:10Z</time>
      </trkpt>
      <trkpt lat="43.82506" lon="3.58327">
        <ele>780.32</ele>
        <time>2009-03-19T12:26:22Z</time>
      </trkpt>
      <trkpt lat="43.82507" lon="3.58328">
        <ele>779.575</ele>
        <time>2009-03-19T12:26:42Z</time>
      </trkpt>
      <trkpt lat="43.82509" lon="3.58328">
        <ele>779.725</ele>
        <time>2009-03-19T12:26:58Z</time>
      </trkpt>
      <trkpt lat="43.8251" lon="3.58329">
        <ele>781.203</ele>
        <time>2009-03-19T12:27:23Z</time>
      </trkpt>
      <trkpt lat="43.8251" lon="3.58329">
        <ele>779.987</ele>
        <time>2009-03-19T12:27:50Z</time>
      </trkpt>
      <trkpt lat="43.82509" lon="3.58328">
        <ele>780.17</ele>
        <time>2009-03-19T12:28:15Z</time>
      </trkpt>
      <trkpt lat="43.8251" lon="3.58327">
        <ele>780.741</ele>
        <time>2009-03-19T12:28:44Z</time>
      </trkpt>
      <trkpt lat="43.82509" lon="3.58328">
        <ele>782.206</ele>
        <time>2009-03-19T12:28:52Z</time>
      </trkpt>
      <trkpt lat="43.82509" lon="3.58328">
        <ele>780.879</ele>
        <time>2009-03-19T12:29:18Z</time>
      </trkpt>
      <trkpt lat="43.82506" lon="3.58327">
        <ele>780.429</ele>
        <time>2009-03-19T12:29:42Z</time>
      </trkpt>
      <trkpt lat="43.82506" lon="3.58326">
        <ele>780.417</ele>
        <time>2009-03-19T12:29:51Z</time>
      </trkpt>
      <trkpt lat="43.82507" lon="3.58326">
        <ele>783.423</ele>
        <time>2009-03-19T12:29:54Z</time>
      </trkpt>
      <trkpt lat="43.82508" lon="3.58328">
        <ele>780.009</ele>
        <time>2009-03-19T12:30:08Z</time>
      </trkpt>
      <trkpt lat="43.82508" lon="3.5833">
        <ele>783.121</ele>
        <time>2009-03-19T12:30:28Z</time>
      </trkpt>
      <trkpt lat="43.82508" lon="3.5833">
        <ele>781.58</ele>
        <time>2009-03-19T12:30:29Z</time>
      </trkpt>
      <trkpt lat="43.82508" lon="3.58331">
        <ele>781.938</ele>
        <time>2009-03-19T12:31:00Z</time>
      </trkpt>
      <trkpt lat="43.82508" lon="3.5833">
        <ele>780.992</ele>
        <time>2009-03-19T12:31:43Z</time>
      </trkpt>
      <trkpt lat="43.82508" lon="3.5833">
        <ele>777.488</ele>
        <time>2009-03-19T12:31:51Z</time>
      </trkpt>
      <trkpt lat="43.82508" lon="3.5833">
        <ele>782.881</ele>
        <time>2009-03-19T12:31:52Z</time>
      </trkpt>
      <trkpt lat="43.82508" lon="3.5833">
        <ele>779.41</ele>
        <time>2009-03-19T12:31:55Z</time>
      </trkpt>
      <trkpt lat="43.82508" lon="3.58329">
        <ele>779.947</ele>
        <time>2009-03-19T12:32:06Z</time>
      </trkpt>
      <trkpt lat="43.82509" lon="3.5833">
        <ele>776.312</ele>
        <time>2009-03-19T12:32:17Z</time>
      </trkpt>
      <trkpt lat="43.82509" lon="3.5833">
        <ele>781.054</ele>
        <time>2009-03-19T12:32:18Z</time>
      </trkpt>
      <trkpt lat="43.82509" lon="3.5833">
        <ele>785.844</ele>
        <time>2009-03-19T12:32:19Z</time>
      </trkpt>
      <trkpt lat="43.82509" lon="3.5833">
        <ele>785.844</ele>
        <time>2009-03-19T12:32:20Z</time>
      </trkpt>
      <trkpt lat="43.82509" lon="3.5833">
        <ele>781.787</ele>
        <time>2009-03-19T12:32:21Z</time>
      </trkpt>
      <trkpt lat="43.82509" lon="3.58329">
        <ele>780.694</ele>
        <time>2009-03-19T12:32:23Z</time>
      </trkpt>
      <trkpt lat="43.8251" lon="3.58329">
        <ele>780.749</ele>
        <time>2009-03-19T12:32:45Z</time>
      </trkpt>
      <trkpt lat="43.82508" lon="3.58329">
        <ele>781.752</ele>
        <time>2009-03-19T12:33:28Z</time>
      </trkpt>
      <trkpt lat="43.82508" lon="3.58329">
        <ele>782.002</ele>
        <time>2009-03-19T12:33:58Z</time>
      </trkpt>
      <trkpt lat="43.82508" lon="3.5833">
        <ele>782.393</ele>
        <time>2009-03-19T12:34:30Z</time>
      </trkpt>
      <trkpt lat="43.82509" lon="3.5833">
        <ele>782.39</ele>
        <time>2009-03-19T12:34:39Z</time>
      </trkpt>
      <trkpt lat="43.82509" lon="3.5833">
        <ele>778.874</ele>
        <time>2009-03-19T12:34:43Z</time>
      </trkpt>
      <trkpt lat="43.82509" lon="3.5833">
        <ele>782.112</ele>
        <time>2009-03-19T12:34:45Z</time>
      </trkpt>
      <trkpt lat="43.82509" lon="3.5833">
        <ele>780.582</ele>
        <time>2009-03-19T12:34:46Z</time>
      </trkpt>
      <trkpt lat="43.82509" lon="3.58329">
        <ele>779.886</ele>
        <time>2009-03-19T12:34:48Z</time>
      </trkpt>
      <trkpt lat="43.82509" lon="3.58329">
        <ele>781.529</ele>
        <time>2009-03-19T12:34:55Z</time>
      </trkpt>
      <trkpt lat="43.82509" lon="3.58329">
        <ele>780.001</ele>
        <time>2009-03-19T12:35:19Z</time>
      </trkpt>
      <trkpt lat="43.82508" lon="3.58329">
        <ele>781.838</ele>
        <time>2009-03-19T12:35:51Z</time>
      </trkpt>
      <trkpt lat="43.82508" lon="3.58331">
        <ele>782.335</ele>
        <time>2009-03-19T12:36:19Z</time>
      </trkpt>
      <trkpt lat="43.82508" lon="3.58331">
        <ele>782.671</ele>
        <time>2009-03-19T12:36:39Z</time>
      </trkpt>
      <trkpt lat="43.82508" lon="3.5833">
        <ele>779.11</ele>
        <time>2009-03-19T12:36:56Z</time>
      </trkpt>
      <trkpt lat="43.82508" lon="3.5833">
        <ele>780.363</ele>
        <time>2009-03-19T12:36:57Z</time>
      </trkpt>
      <trkpt lat="43.82508" lon="3.5833">
        <ele>781.252</ele>
        <time>2009-03-19T12:36:59Z</time>
      </trkpt>
      <trkpt lat="43.82509" lon="3.5833">
        <ele>780.55</ele>
        <time>2009-03-19T12:37:35Z</time>
      </trkpt>
      <trkpt lat="43.82509" lon="3.58328">
        <ele>780.897</ele>
        <time>2009-03-19T12:38:19Z</time>
      </trkpt>
      <trkpt lat="43.82509" lon="3.58327">
        <ele>780.601</ele>
        <time>2009-03-19T12:38:54Z</time>
      </trkpt>
      <trkpt lat="43.82509" lon="3.58327">
        <ele>779.699</ele>
        <time>2009-03-19T12:39:17Z</time>
      </trkpt>
      <trkpt lat="43.82509" lon="3.58326">
        <ele>779.853</ele>
        <time>2009-03-19T12:39:42Z</time>
      </trkpt>
      <trkpt lat="43.82512" lon="3.58328">
        <ele>780.55</ele>
        <time>2009-03-19T12:40:04Z</time>
      </trkpt>
      <trkpt lat="43.82514" lon="3.5832">
        <ele>779.235</ele>
        <time>2009-03-19T12:40:16Z</time>
      </trkpt>
      <trkpt lat="43.82522" lon="3.58319">
        <ele>776.369</ele>
        <time>2009-03-19T12:40:29Z</time>
      </trkpt>
      <trkpt lat="43.82527" lon="3.58322">
        <ele>775.677</ele>
        <time>2009-03-19T12:40:42Z</time>
      </trkpt>
      <trkpt lat="43.82531" lon="3.58331">
        <ele>774.966</ele>
        <time>2009-03-19T12:40:55Z</time>
      </trkpt>
      <trkpt lat="43.82537" lon="3.58337">
        <ele>774.217</ele>
        <time>2009-03-19T12:41:06Z</time>
      </trkpt>
      <trkpt lat="43.82544" lon="3.58346">
        <ele>772.13</ele>
        <time>2009-03-19T12:41:19Z</time>
      </trkpt>
      <trkpt lat="43.82544" lon="3.58347">
        <ele>771.51</ele>
        <time>2009-03-19T12:41:20Z</time>
      </trkpt>
      <trkpt lat="43.82553" lon="3.58351">
        <ele>769.399</ele>
        <time>2009-03-19T12:41:33Z</time>
      </trkpt>
      <trkpt lat="43.82553" lon="3.58351">
        <ele>769.856</ele>
        <time>2009-03-19T12:41:37Z</time>
      </trkpt>
      <trkpt lat="43.82559" lon="3.58353">
        <ele>766.605</ele>
        <time>2009-03-19T12:41:44Z</time>
      </trkpt>
      <trkpt lat="43.82564" lon="3.58355">
        <ele>765.473</ele>
        <time>2009-03-19T12:41:57Z</time>
      </trkpt>
      <trkpt lat="43.82569" lon="3.58361">
        <ele>764.771</ele>
        <time>2009-03-19T12:42:06Z</time>
      </trkpt>
      <trkpt lat="43.82573" lon="3.58368">
        <ele>764.153</ele>
        <time>2009-03-19T12:42:22Z</time>
      </trkpt>
      <trkpt lat="43.82579" lon="3.5837">
        <ele>762.844</ele>
        <time>2009-03-19T12:42:37Z</time>
      </trkpt>
      <trkpt lat="43.82578" lon="3.58369">
        <ele>762.987</ele>
        <time>2009-03-19T12:42:52Z</time>
      </trkpt>
      <trkpt lat="43.82582" lon="3.58377">
        <ele>762.765</ele>
        <time>2009-03-19T12:43:05Z</time>
      </trkpt>
      <trkpt lat="43.82583" lon="3.58378">
        <ele>762.845</ele>
        <time>2009-03-19T12:43:06Z</time>
      </trkpt>
      <trkpt lat="43.8259" lon="3.58376">
        <ele>759.697</ele>
        <time>2009-03-19T12:43:19Z</time>
      </trkpt>
      <trkpt lat="43.82597" lon="3.58375">
        <ele>757.537</ele>
        <time>2009-03-19T12:43:33Z</time>
      </trkpt>
      <trkpt lat="43.82602" lon="3.58374">
        <ele>756.219</ele>
        <time>2009-03-19T12:43:48Z</time>
      </trkpt>
      <trkpt lat="43.82606" lon="3.58382">
        <ele>754.545</ele>
        <time>2009-03-19T12:44:05Z</time>
      </trkpt>
      <trkpt lat="43.82607" lon="3.58386">
        <ele>753.675</ele>
        <time>2009-03-19T12:44:08Z</time>
      </trkpt>
      <trkpt lat="43.82606" lon="3.58391">
        <ele>753.966</ele>
        <time>2009-03-19T12:44:12Z</time>
      </trkpt>
      <trkpt lat="43.82605" lon="3.58399">
        <ele>754.705</ele>
        <time>2009-03-19T12:44:18Z</time>
      </trkpt>
      <trkpt lat="43.82605" lon="3.58407">
        <ele>755.728</ele>
        <time>2009-03-19T12:44:24Z</time>
      </trkpt>
      <trkpt lat="43.82604" lon="3.58417">
        <ele>754.433</ele>
        <time>2009-03-19T12:44:31Z</time>
      </trkpt>
      <trkpt lat="43.82608" lon="3.58432">
        <ele>752.169</ele>
        <time>2009-03-19T12:44:46Z</time>
      </trkpt>
      <trkpt lat="43.82609" lon="3.58435">
        <ele>751.694</ele>
        <time>2009-03-19T12:44:50Z</time>
      </trkpt>
      <trkpt lat="43.82611" lon="3.58437">
        <ele>750.693</ele>
        <time>2009-03-19T12:44:52Z</time>
      </trkpt>
      <trkpt lat="43.82612" lon="3.58448">
        <ele>750.451</ele>
        <time>2009-03-19T12:45:04Z</time>
      </trkpt>
      <trkpt lat="43.82613" lon="3.58454">
        <ele>749.865</ele>
        <time>2009-03-19T12:45:08Z</time>
      </trkpt>
      <trkpt lat="43.82616" lon="3.5847">
        <ele>748.624</ele>
        <time>2009-03-19T12:45:20Z</time>
      </trkpt>
      <trkpt lat="43.82621" lon="3.58481">
        <ele>748.069</ele>
        <time>2009-03-19T12:45:32Z</time>
      </trkpt>
      <trkpt lat="43.82621" lon="3.58483">
        <ele>747.245</ele>
        <time>2009-03-19T12:45:34Z</time>
      </trkpt>
      <trkpt lat="43.82624" lon="3.58487">
        <ele>746.87</ele>
        <time>2009-03-19T12:45:38Z</time>
      </trkpt>
      <trkpt lat="43.82625" lon="3.58507">
        <ele>746.678</ele>
        <time>2009-03-19T12:45:53Z</time>
      </trkpt>
      <trkpt lat="43.82631" lon="3.58522">
        <ele>745.806</ele>
        <time>2009-03-19T12:46:06Z</time>
      </trkpt>
      <trkpt lat="43.82632" lon="3.58537">
        <ele>744.586</ele>
        <time>2009-03-19T12:46:19Z</time>
      </trkpt>
      <trkpt lat="43.82634" lon="3.5854">
        <ele>744.412</ele>
        <time>2009-03-19T12:46:24Z</time>
      </trkpt>
      <trkpt lat="43.82637" lon="3.58547">
        <ele>744.211</ele>
        <time>2009-03-19T12:46:32Z</time>
      </trkpt>
      <trkpt lat="43.82638" lon="3.58557">
        <ele>742.36</ele>
        <time>2009-03-19T12:46:44Z</time>
      </trkpt>
      <trkpt lat="43.82639" lon="3.58559">
        <ele>741.523</ele>
        <time>2009-03-19T12:46:45Z</time>
      </trkpt>
      <trkpt lat="43.82638" lon="3.58565">
        <ele>741.285</ele>
        <time>2009-03-19T12:46:50Z</time>
      </trkpt>
      <trkpt lat="43.82641" lon="3.58573">
        <ele>741.335</ele>
        <time>2009-03-19T12:47:00Z</time>
      </trkpt>
      <trkpt lat="43.82643" lon="3.58568">
        <ele>742.057</ele>
        <time>2009-03-19T12:47:07Z</time>
      </trkpt>
      <trkpt lat="43.82644" lon="3.58567">
        <ele>741.811</ele>
        <time>2009-03-19T12:47:09Z</time>
      </trkpt>
      <trkpt lat="43.82652" lon="3.58559">
        <ele>740.635</ele>
        <time>2009-03-19T12:47:20Z</time>
      </trkpt>
      <trkpt lat="43.82653" lon="3.5856">
        <ele>741.911</ele>
        <time>2009-03-19T12:47:23Z</time>
      </trkpt>
      <trkpt lat="43.82654" lon="3.5856">
        <ele>741.987</ele>
        <time>2009-03-19T12:47:24Z</time>
      </trkpt>
      <trkpt lat="43.82662" lon="3.58557">
        <ele>741.215</ele>
        <time>2009-03-19T12:47:30Z</time>
      </trkpt>
      <trkpt lat="43.82668" lon="3.58561">
        <ele>741.709</ele>
        <time>2009-03-19T12:47:35Z</time>
      </trkpt>
      <trkpt lat="43.82675" lon="3.58566">
        <ele>741.544</ele>
        <time>2009-03-19T12:47:41Z</time>
      </trkpt>
      <trkpt lat="43.8268" lon="3.58567">
        <ele>741.418</ele>
        <time>2009-03-19T12:47:46Z</time>
      </trkpt>
      <trkpt lat="43.82684" lon="3.58573">
        <ele>742.405</ele>
        <time>2009-03-19T12:47:51Z</time>
      </trkpt>
      <trkpt lat="43.82694" lon="3.58578">
        <ele>743.565</ele>
        <time>2009-03-19T12:48:00Z</time>
      </trkpt>
      <trkpt lat="43.82696" lon="3.5858">
        <ele>742.245</ele>
        <time>2009-03-19T12:48:02Z</time>
      </trkpt>
      <trkpt lat="43.82703" lon="3.58585">
        <ele>744.222</ele>
        <time>2009-03-19T12:48:10Z</time>
      </trkpt>
      <trkpt lat="43.82715" lon="3.58583">
        <ele>745.099</ele>
        <time>2009-03-19T12:48:19Z</time>
      </trkpt>
      <trkpt lat="43.8272" lon="3.58578">
        <ele>745.317</ele>
        <time>2009-03-19T12:48:24Z</time>
      </trkpt>
      <trkpt lat="43.82724" lon="3.58573">
        <ele>745.928</ele>
        <time>2009-03-19T12:48:29Z</time>
      </trkpt>
      <trkpt lat="43.82736" lon="3.58562">
        <ele>747.799</ele>
        <time>2009-03-19T12:48:42Z</time>
      </trkpt>
      <trkpt lat="43.82739" lon="3.58559">
        <ele>746.979</ele>
        <time>2009-03-19T12:48:45Z</time>
      </trkpt>
      <trkpt lat="43.82742" lon="3.58555">
        <ele>746.862</ele>
        <time>2009-03-19T12:48:49Z</time>
      </trkpt>
      <trkpt lat="43.82746" lon="3.58555">
        <ele>747.142</ele>
        <time>2009-03-19T12:48:53Z</time>
      </trkpt>
      <trkpt lat="43.82748" lon="3.58553">
        <ele>747.782</ele>
        <time>2009-03-19T12:48:55Z</time>
      </trkpt>
      <trkpt lat="43.8276" lon="3.5855">
        <ele>747.782</ele>
        <time>2009-03-19T12:49:09Z</time>
      </trkpt>
      <trkpt lat="43.82765" lon="3.58546">
        <ele>748.635</ele>
        <time>2009-03-19T12:49:15Z</time>
      </trkpt>
      <trkpt lat="43.82772" lon="3.58542">
        <ele>752.52</ele>
        <time>2009-03-19T12:49:23Z</time>
      </trkpt>
      <trkpt lat="43.8278" lon="3.5854">
        <ele>750.632</ele>
        <time>2009-03-19T12:49:32Z</time>
      </trkpt>
      <trkpt lat="43.82786" lon="3.58537">
        <ele>750.715</ele>
        <time>2009-03-19T12:49:38Z</time>
      </trkpt>
      <trkpt lat="43.82796" lon="3.58529">
        <ele>751.008</ele>
        <time>2009-03-19T12:49:50Z</time>
      </trkpt>
      <trkpt lat="43.828" lon="3.58524">
        <ele>751.029</ele>
        <time>2009-03-19T12:49:56Z</time>
      </trkpt>
      <trkpt lat="43.82806" lon="3.58521">
        <ele>751.127</ele>
        <time>2009-03-19T12:50:02Z</time>
      </trkpt>
      <trkpt lat="43.82811" lon="3.58516">
        <ele>750.73</ele>
        <time>2009-03-19T12:50:07Z</time>
      </trkpt>
      <trkpt lat="43.82819" lon="3.5852">
        <ele>753.081</ele>
        <time>2009-03-19T12:50:17Z</time>
      </trkpt>
      <trkpt lat="43.82828" lon="3.58523">
        <ele>754.971</ele>
        <time>2009-03-19T12:50:26Z</time>
      </trkpt>
      <trkpt lat="43.82841" lon="3.58521">
        <ele>756.985</ele>
        <time>2009-03-19T12:50:38Z</time>
      </trkpt>
      <trkpt lat="43.82844" lon="3.5852">
        <ele>756.837</ele>
        <time>2009-03-19T12:50:40Z</time>
      </trkpt>
      <trkpt lat="43.82854" lon="3.5852">
        <ele>756.704</ele>
        <time>2009-03-19T12:50:50Z</time>
      </trkpt>
      <trkpt lat="43.82864" lon="3.58519">
        <ele>757.369</ele>
        <time>2009-03-19T12:51:01Z</time>
      </trkpt>
      <trkpt lat="43.82877" lon="3.58517">
        <ele>757.326</ele>
        <time>2009-03-19T12:51:12Z</time>
      </trkpt>
      <trkpt lat="43.82879" lon="3.58516">
        <ele>757.323</ele>
        <time>2009-03-19T12:51:13Z</time>
      </trkpt>
      <trkpt lat="43.82885" lon="3.58513">
        <ele>756.993</ele>
        <time>2009-03-19T12:51:19Z</time>
      </trkpt>
      <trkpt lat="43.82888" lon="3.58514">
        <ele>756.262</ele>
        <time>2009-03-19T12:51:22Z</time>
      </trkpt>
      <trkpt lat="43.82898" lon="3.58521">
        <ele>755.619</ele>
        <time>2009-03-19T12:51:32Z</time>
      </trkpt>
      <trkpt lat="43.82908" lon="3.58527">
        <ele>755.587</ele>
        <time>2009-03-19T12:51:40Z</time>
      </trkpt>
      <trkpt lat="43.8291" lon="3.58528">
        <ele>755.817</ele>
        <time>2009-03-19T12:51:42Z</time>
      </trkpt>
      <trkpt lat="43.82917" lon="3.58534">
        <ele>755.231</ele>
        <time>2009-03-19T12:51:50Z</time>
      </trkpt>
      <trkpt lat="43.82929" lon="3.58544">
        <ele>755.736</ele>
        <time>2009-03-19T12:52:02Z</time>
      </trkpt>
      <trkpt lat="43.8294" lon="3.58557">
        <ele>756.485</ele>
        <time>2009-03-19T12:52:14Z</time>
      </trkpt>
      <trkpt lat="43.82946" lon="3.5858">
        <ele>756.462</ele>
        <time>2009-03-19T12:52:30Z</time>
      </trkpt>
      <trkpt lat="43.82946" lon="3.58583">
        <ele>756.799</ele>
        <time>2009-03-19T12:52:32Z</time>
      </trkpt>
      <trkpt lat="43.82948" lon="3.58586">
        <ele>756.73</ele>
        <time>2009-03-19T12:52:34Z</time>
      </trkpt>
      <trkpt lat="43.82948" lon="3.5859">
        <ele>757.223</ele>
        <time>2009-03-19T12:52:36Z</time>
      </trkpt>
      <trkpt lat="43.82952" lon="3.58599">
        <ele>756.205</ele>
        <time>2009-03-19T12:52:43Z</time>
      </trkpt>
      <trkpt lat="43.82953" lon="3.58602">
        <ele>755.565</ele>
        <time>2009-03-19T12:52:46Z</time>
      </trkpt>
      <trkpt lat="43.82956" lon="3.58607">
        <ele>755.035</ele>
        <time>2009-03-19T12:52:51Z</time>
      </trkpt>
      <trkpt lat="43.82958" lon="3.58613">
        <ele>753.891</ele>
        <time>2009-03-19T12:52:56Z</time>
      </trkpt>
      <trkpt lat="43.82964" lon="3.58622">
        <ele>751.5</ele>
        <time>2009-03-19T12:53:04Z</time>
      </trkpt>
      <trkpt lat="43.82967" lon="3.58633">
        <ele>749.695</ele>
        <time>2009-03-19T12:53:12Z</time>
      </trkpt>
      <trkpt lat="43.82972" lon="3.58645">
        <ele>747.863</ele>
        <time>2009-03-19T12:53:21Z</time>
      </trkpt>
      <trkpt lat="43.82976" lon="3.58651">
        <ele>746.719</ele>
        <time>2009-03-19T12:53:26Z</time>
      </trkpt>
      <trkpt lat="43.8298" lon="3.58666">
        <ele>745.346</ele>
        <time>2009-03-19T12:53:39Z</time>
      </trkpt>
      <trkpt lat="43.8298" lon="3.58669">
        <ele>743.803</ele>
        <time>2009-03-19T12:53:42Z</time>
      </trkpt>
      <trkpt lat="43.8298" lon="3.58672">
        <ele>744.016</ele>
        <time>2009-03-19T12:53:44Z</time>
      </trkpt>
      <trkpt lat="43.82981" lon="3.5868">
        <ele>741.472</ele>
        <time>2009-03-19T12:53:50Z</time>
      </trkpt>
      <trkpt lat="43.82982" lon="3.58682">
        <ele>739.912</ele>
        <time>2009-03-19T12:53:51Z</time>
      </trkpt>
      <trkpt lat="43.82983" lon="3.58695">
        <ele>738.647</ele>
        <time>2009-03-19T12:54:02Z</time>
      </trkpt>
      <trkpt lat="43.82983" lon="3.58699">
        <ele>736.9</ele>
        <time>2009-03-19T12:54:06Z</time>
      </trkpt>
      <trkpt lat="43.82983" lon="3.5871">
        <ele>734.15</ele>
        <time>2009-03-19T12:54:16Z</time>
      </trkpt>
      <trkpt lat="43.82987" lon="3.58718">
        <ele>732.771</ele>
        <time>2009-03-19T12:54:24Z</time>
      </trkpt>
      <trkpt lat="43.82988" lon="3.58726">
        <ele>731.051</ele>
        <time>2009-03-19T12:54:29Z</time>
      </trkpt>
      <trkpt lat="43.8299" lon="3.58731">
        <ele>730.748</ele>
        <time>2009-03-19T12:54:33Z</time>
      </trkpt>
      <trkpt lat="43.82998" lon="3.5874">
        <ele>729.087</ele>
        <time>2009-03-19T12:54:44Z</time>
      </trkpt>
      <trkpt lat="43.82998" lon="3.58742">
        <ele>728.641</ele>
        <time>2009-03-19T12:54:46Z</time>
      </trkpt>
      <trkpt lat="43.83" lon="3.58747">
        <ele>727.018</ele>
        <time>2009-03-19T12:54:50Z</time>
      </trkpt>
      <trkpt lat="43.83003" lon="3.58747">
        <ele>726.703</ele>
        <time>2009-03-19T12:54:54Z</time>
      </trkpt>
      <trkpt lat="43.83006" lon="3.58746">
        <ele>726.543</ele>
        <time>2009-03-19T12:54:57Z</time>
      </trkpt>
      <trkpt lat="43.83011" lon="3.58751">
        <ele>724.091</ele>
        <time>2009-03-19T12:55:04Z</time>
      </trkpt>
      <trkpt lat="43.83018" lon="3.58759">
        <ele>721.019</ele>
        <time>2009-03-19T12:55:15Z</time>
      </trkpt>
      <trkpt lat="43.83019" lon="3.58766">
        <ele>717.959</ele>
        <time>2009-03-19T12:55:20Z</time>
      </trkpt>
      <trkpt lat="43.8302" lon="3.58776">
        <ele>716.791</ele>
        <time>2009-03-19T12:55:33Z</time>
      </trkpt>
      <trkpt lat="43.8302" lon="3.58778">
        <ele>717.352</ele>
        <time>2009-03-19T12:55:35Z</time>
      </trkpt>
      <trkpt lat="43.83028" lon="3.58785">
        <ele>715.306</ele>
        <time>2009-03-19T12:55:44Z</time>
      </trkpt>
      <trkpt lat="43.83029" lon="3.58787">
        <ele>716.078</ele>
        <time>2009-03-19T12:56:00Z</time>
      </trkpt>
      <trkpt lat="43.83031" lon="3.58791">
        <ele>714.487</ele>
        <time>2009-03-19T12:56:39Z</time>
      </trkpt>
      <trkpt lat="43.83028" lon="3.58789">
        <ele>713.888</ele>
        <time>2009-03-19T12:56:54Z</time>
      </trkpt>
      <trkpt lat="43.83029" lon="3.58788">
        <ele>713.229</ele>
        <time>2009-03-19T13:00:22Z</time>
      </trkpt>
      <trkpt lat="43.83029" lon="3.58788">
        <ele>714.11</ele>
        <time>2009-03-19T13:13:36Z</time>
      </trkpt>
      <trkpt lat="43.83029" lon="3.58788">
        <ele>714.917</ele>
        <time>2009-03-19T13:13:43Z</time>
      </trkpt>
      <trkpt lat="43.83028" lon="3.58788">
        <ele>714.074</ele>
        <time>2009-03-19T13:15:57Z</time>
      </trkpt>
      <trkpt lat="43.83029" lon="3.58792">
        <ele>713.742</ele>
        <time>2009-03-19T13:16:19Z</time>
      </trkpt>
      <trkpt lat="43.83036" lon="3.58804">
        <ele>711.423</ele>
        <time>2009-03-19T13:16:36Z</time>
      </trkpt>
      <trkpt lat="43.83037" lon="3.58805">
        <ele>711.414</ele>
        <time>2009-03-19T13:16:37Z</time>
      </trkpt>
      <trkpt lat="43.83038" lon="3.58806">
        <ele>711.033</ele>
        <time>2009-03-19T13:16:38Z</time>
      </trkpt>
      <trkpt lat="43.83045" lon="3.58808">
        <ele>709.899</ele>
        <time>2009-03-19T13:16:45Z</time>
      </trkpt>
      <trkpt lat="43.83048" lon="3.58816">
        <ele>709.117</ele>
        <time>2009-03-19T13:16:51Z</time>
      </trkpt>
      <trkpt lat="43.83051" lon="3.58817">
        <ele>708.29</ele>
        <time>2009-03-19T13:16:54Z</time>
      </trkpt>
      <trkpt lat="43.83056" lon="3.58822">
        <ele>706.869</ele>
        <time>2009-03-19T13:17:05Z</time>
      </trkpt>
      <trkpt lat="43.83058" lon="3.58815">
        <ele>708.388</ele>
        <time>2009-03-19T13:17:21Z</time>
      </trkpt>
      <trkpt lat="43.83058" lon="3.58815">
        <ele>709.448</ele>
        <time>2009-03-19T13:17:27Z</time>
      </trkpt>
      <trkpt lat="43.83059" lon="3.58818">
        <ele>709.166</ele>
        <time>2009-03-19T13:18:05Z</time>
      </trkpt>
      <trkpt lat="43.83058" lon="3.58827">
        <ele>707.475</ele>
        <time>2009-03-19T13:18:21Z</time>
      </trkpt>
      <trkpt lat="43.83058" lon="3.58828">
        <ele>707.87</ele>
        <time>2009-03-19T13:18:22Z</time>
      </trkpt>
      <trkpt lat="43.83062" lon="3.58842">
        <ele>704.484</ele>
        <time>2009-03-19T13:18:34Z</time>
      </trkpt>
      <trkpt lat="43.83063" lon="3.5886">
        <ele>702.707</ele>
        <time>2009-03-19T13:18:48Z</time>
      </trkpt>
      <trkpt lat="43.83062" lon="3.58865">
        <ele>701.809</ele>
        <time>2009-03-19T13:18:52Z</time>
      </trkpt>
      <trkpt lat="43.83059" lon="3.58876">
        <ele>701.65</ele>
        <time>2009-03-19T13:19:02Z</time>
      </trkpt>
      <trkpt lat="43.83056" lon="3.58882">
        <ele>701.581</ele>
        <time>2009-03-19T13:19:08Z</time>
      </trkpt>
      <trkpt lat="43.83055" lon="3.58889">
        <ele>698.232</ele>
        <time>2009-03-19T13:19:14Z</time>
      </trkpt>
      <trkpt lat="43.83057" lon="3.58905">
        <ele>695.251</ele>
        <time>2009-03-19T13:19:26Z</time>
      </trkpt>
      <trkpt lat="43.83054" lon="3.58917">
        <ele>695.423</ele>
        <time>2009-03-19T13:19:40Z</time>
      </trkpt>
      <trkpt lat="43.83052" lon="3.58926">
        <ele>694.57</ele>
        <time>2009-03-19T13:20:05Z</time>
      </trkpt>
      <trkpt lat="43.83053" lon="3.58924">
        <ele>694.896</ele>
        <time>2009-03-19T13:20:22Z</time>
      </trkpt>
      <trkpt lat="43.83053" lon="3.58928">
        <ele>694.447</ele>
        <time>2009-03-19T13:21:44Z</time>
      </trkpt>
      <trkpt lat="43.8305" lon="3.58929">
        <ele>693.19</ele>
        <time>2009-03-19T13:22:10Z</time>
      </trkpt>
      <trkpt lat="43.83054" lon="3.58921">
        <ele>694.433</ele>
        <time>2009-03-19T13:22:24Z</time>
      </trkpt>
      <trkpt lat="43.83053" lon="3.58923">
        <ele>694.336</ele>
        <time>2009-03-19T13:23:09Z</time>
      </trkpt>
    </trkseg>
  </trk>
</gpx>